<?xml version="1.0" encoding="UTF-8" standalone="no" ?>
<gpx xmlns="http://www.topografix.com/GPX/1/1" xmlns:xsi="http://www.w3.org/2001/XMLSchema-instance" xsi:schemaLocation="http://www.topografix.com/GPX/1/1 http://www.topografix.com/GPX/1/1/gpx.xsd" version="1.1" creator="VisuGPX - https://www.visugpx.com">
  <metadata>
    <name>Le Fanget Clos des vaches</name>
  </metadata>
  <trk>
    <name><![CDATA[18-APR-22 16:33:59]]></name>
    <trkseg>
      <trkpt lat="44.32801" lon="6.32807">
        <ele>1400.78</ele>
        <time>2022-04-18T11:37:45Z</time>
      </trkpt>
      <trkpt lat="44.32793" lon="6.32767">
        <ele>1419.04</ele>
        <time>2022-04-18T11:37:54Z</time>
      </trkpt>
      <trkpt lat="44.32801" lon="6.3275">
        <ele>1439.71</ele>
        <time>2022-04-18T11:38:11Z</time>
      </trkpt>
      <trkpt lat="44.3281" lon="6.32748">
        <ele>1434.42</ele>
        <time>2022-04-18T11:38:31Z</time>
      </trkpt>
      <trkpt lat="44.32822" lon="6.32744">
        <ele>1435.87</ele>
        <time>2022-04-18T11:38:45Z</time>
      </trkpt>
      <trkpt lat="44.32835" lon="6.32752">
        <ele>1435.39</ele>
        <time>2022-04-18T11:39:00Z</time>
      </trkpt>
      <trkpt lat="44.32836" lon="6.32766">
        <ele>1434.91</ele>
        <time>2022-04-18T11:39:15Z</time>
      </trkpt>
      <trkpt lat="44.32833" lon="6.32767">
        <ele>1434.91</ele>
        <time>2022-04-18T11:39:28Z</time>
      </trkpt>
      <trkpt lat="44.32827" lon="6.32768">
        <ele>1434.91</ele>
        <time>2022-04-18T11:39:47Z</time>
      </trkpt>
      <trkpt lat="44.32823" lon="6.32774">
        <ele>1435.39</ele>
        <time>2022-04-18T11:40:03Z</time>
      </trkpt>
      <trkpt lat="44.3282" lon="6.3278">
        <ele>1437.31</ele>
        <time>2022-04-18T11:40:19Z</time>
      </trkpt>
      <trkpt lat="44.32827" lon="6.32773">
        <ele>1448.84</ele>
        <time>2022-04-18T11:40:44Z</time>
      </trkpt>
      <trkpt lat="44.32826" lon="6.32779">
        <ele>1452.21</ele>
        <time>2022-04-18T11:40:57Z</time>
      </trkpt>
      <trkpt lat="44.32821" lon="6.32787">
        <ele>1454.13</ele>
        <time>2022-04-18T11:41:07Z</time>
      </trkpt>
      <trkpt lat="44.32815" lon="6.32808">
        <ele>1454.13</ele>
        <time>2022-04-18T11:41:24Z</time>
      </trkpt>
      <trkpt lat="44.32812" lon="6.32822">
        <ele>1452.69</ele>
        <time>2022-04-18T11:41:38Z</time>
      </trkpt>
      <trkpt lat="44.32808" lon="6.32842">
        <ele>1450.77</ele>
        <time>2022-04-18T11:41:56Z</time>
      </trkpt>
      <trkpt lat="44.32804" lon="6.32845">
        <ele>1456.53</ele>
        <time>2022-04-18T11:42:08Z</time>
      </trkpt>
      <trkpt lat="44.32803" lon="6.32851">
        <ele>1459.42</ele>
        <time>2022-04-18T11:42:28Z</time>
      </trkpt>
      <trkpt lat="44.32804" lon="6.32862">
        <ele>1459.9</ele>
        <time>2022-04-18T11:42:41Z</time>
      </trkpt>
      <trkpt lat="44.32806" lon="6.32878">
        <ele>1458.94</ele>
        <time>2022-04-18T11:42:58Z</time>
      </trkpt>
      <trkpt lat="44.32811" lon="6.3289">
        <ele>1459.9</ele>
        <time>2022-04-18T11:43:15Z</time>
      </trkpt>
      <trkpt lat="44.32814" lon="6.32898">
        <ele>1460.86</ele>
        <time>2022-04-18T11:43:32Z</time>
      </trkpt>
      <trkpt lat="44.32817" lon="6.32905">
        <ele>1461.82</ele>
        <time>2022-04-18T11:43:46Z</time>
      </trkpt>
      <trkpt lat="44.32823" lon="6.32916">
        <ele>1463.26</ele>
        <time>2022-04-18T11:44:03Z</time>
      </trkpt>
      <trkpt lat="44.32829" lon="6.32932">
        <ele>1464.23</ele>
        <time>2022-04-18T11:44:17Z</time>
      </trkpt>
      <trkpt lat="44.32831" lon="6.32942">
        <ele>1465.19</ele>
        <time>2022-04-18T11:44:22Z</time>
      </trkpt>
      <trkpt lat="44.32824" lon="6.32967">
        <ele>1474.32</ele>
        <time>2022-04-18T11:44:36Z</time>
      </trkpt>
      <trkpt lat="44.32819" lon="6.32982">
        <ele>1478.65</ele>
        <time>2022-04-18T11:44:51Z</time>
      </trkpt>
      <trkpt lat="44.3282" lon="6.32984">
        <ele>1479.13</ele>
        <time>2022-04-18T11:44:53Z</time>
      </trkpt>
      <trkpt lat="44.32824" lon="6.32991">
        <ele>1480.57</ele>
        <time>2022-04-18T11:45:00Z</time>
      </trkpt>
      <trkpt lat="44.32841" lon="6.32999">
        <ele>1482.01</ele>
        <time>2022-04-18T11:45:16Z</time>
      </trkpt>
      <trkpt lat="44.3285" lon="6.32999">
        <ele>1483.45</ele>
        <time>2022-04-18T11:45:31Z</time>
      </trkpt>
      <trkpt lat="44.32853" lon="6.32995">
        <ele>1483.45</ele>
        <time>2022-04-18T11:45:36Z</time>
      </trkpt>
      <trkpt lat="44.32855" lon="6.3299">
        <ele>1483.45</ele>
        <time>2022-04-18T11:45:41Z</time>
      </trkpt>
      <trkpt lat="44.32859" lon="6.32976">
        <ele>1483.93</ele>
        <time>2022-04-18T11:45:54Z</time>
      </trkpt>
      <trkpt lat="44.32868" lon="6.32972">
        <ele>1483.93</ele>
        <time>2022-04-18T11:46:10Z</time>
      </trkpt>
      <trkpt lat="44.32871" lon="6.32976">
        <ele>1482.97</ele>
        <time>2022-04-18T11:46:25Z</time>
      </trkpt>
      <trkpt lat="44.32872" lon="6.32985">
        <ele>1479.61</ele>
        <time>2022-04-18T11:46:43Z</time>
      </trkpt>
      <trkpt lat="44.32873" lon="6.32993">
        <ele>1478.16</ele>
        <time>2022-04-18T11:47:00Z</time>
      </trkpt>
      <trkpt lat="44.32873" lon="6.32997">
        <ele>1477.2</ele>
        <time>2022-04-18T11:47:17Z</time>
      </trkpt>
      <trkpt lat="44.32873" lon="6.33003">
        <ele>1475.76</ele>
        <time>2022-04-18T11:47:23Z</time>
      </trkpt>
      <trkpt lat="44.32874" lon="6.3303">
        <ele>1471.44</ele>
        <time>2022-04-18T11:47:39Z</time>
      </trkpt>
      <trkpt lat="44.32875" lon="6.33035">
        <ele>1472.4</ele>
        <time>2022-04-18T11:47:53Z</time>
      </trkpt>
      <trkpt lat="44.32874" lon="6.33026">
        <ele>1471.92</ele>
        <time>2022-04-18T11:48:11Z</time>
      </trkpt>
      <trkpt lat="44.32876" lon="6.3301">
        <ele>1470.95</ele>
        <time>2022-04-18T11:48:26Z</time>
      </trkpt>
      <trkpt lat="44.32877" lon="6.33007">
        <ele>1471.44</ele>
        <time>2022-04-18T11:48:29Z</time>
      </trkpt>
      <trkpt lat="44.32877" lon="6.33013">
        <ele>1470.47</ele>
        <time>2022-04-18T11:48:36Z</time>
      </trkpt>
      <trkpt lat="44.32874" lon="6.33028">
        <ele>1465.19</ele>
        <time>2022-04-18T11:48:50Z</time>
      </trkpt>
      <trkpt lat="44.32874" lon="6.33054">
        <ele>1459.42</ele>
        <time>2022-04-18T11:49:06Z</time>
      </trkpt>
      <trkpt lat="44.32868" lon="6.33069">
        <ele>1459.9</ele>
        <time>2022-04-18T11:49:18Z</time>
      </trkpt>
      <trkpt lat="44.32873" lon="6.3309">
        <ele>1460.86</ele>
        <time>2022-04-18T11:49:36Z</time>
      </trkpt>
      <trkpt lat="44.32871" lon="6.33105">
        <ele>1461.34</ele>
        <time>2022-04-18T11:49:52Z</time>
      </trkpt>
      <trkpt lat="44.32873" lon="6.33118">
        <ele>1469.03</ele>
        <time>2022-04-18T11:50:15Z</time>
      </trkpt>
      <trkpt lat="44.32871" lon="6.3312">
        <ele>1469.51</ele>
        <time>2022-04-18T11:50:33Z</time>
      </trkpt>
      <trkpt lat="44.32867" lon="6.33121">
        <ele>1469.03</ele>
        <time>2022-04-18T11:50:46Z</time>
      </trkpt>
      <trkpt lat="44.32863" lon="6.33125">
        <ele>1469.03</ele>
        <time>2022-04-18T11:51:04Z</time>
      </trkpt>
      <trkpt lat="44.32852" lon="6.33128">
        <ele>1469.03</ele>
        <time>2022-04-18T11:51:20Z</time>
      </trkpt>
      <trkpt lat="44.32839" lon="6.3314">
        <ele>1470.95</ele>
        <time>2022-04-18T11:51:34Z</time>
      </trkpt>
      <trkpt lat="44.32836" lon="6.33146">
        <ele>1470.47</ele>
        <time>2022-04-18T11:51:39Z</time>
      </trkpt>
      <trkpt lat="44.32833" lon="6.33165">
        <ele>1472.4</ele>
        <time>2022-04-18T11:51:56Z</time>
      </trkpt>
      <trkpt lat="44.32831" lon="6.3318">
        <ele>1474.32</ele>
        <time>2022-04-18T11:52:10Z</time>
      </trkpt>
      <trkpt lat="44.3283" lon="6.33182">
        <ele>1475.28</ele>
        <time>2022-04-18T11:52:23Z</time>
      </trkpt>
      <trkpt lat="44.32825" lon="6.33192">
        <ele>1473.84</ele>
        <time>2022-04-18T11:52:39Z</time>
      </trkpt>
      <trkpt lat="44.32825" lon="6.33194">
        <ele>1474.32</ele>
        <time>2022-04-18T11:53:00Z</time>
      </trkpt>
      <trkpt lat="44.32822" lon="6.33198">
        <ele>1479.13</ele>
        <time>2022-04-18T11:53:30Z</time>
      </trkpt>
      <trkpt lat="44.3282" lon="6.33205">
        <ele>1480.57</ele>
        <time>2022-04-18T11:53:53Z</time>
      </trkpt>
      <trkpt lat="44.32816" lon="6.33223">
        <ele>1474.8</ele>
        <time>2022-04-18T11:54:09Z</time>
      </trkpt>
      <trkpt lat="44.32813" lon="6.33232">
        <ele>1472.88</ele>
        <time>2022-04-18T11:54:16Z</time>
      </trkpt>
      <trkpt lat="44.32806" lon="6.33247">
        <ele>1472.4</ele>
        <time>2022-04-18T11:54:31Z</time>
      </trkpt>
      <trkpt lat="44.32803" lon="6.33258">
        <ele>1472.88</ele>
        <time>2022-04-18T11:54:43Z</time>
      </trkpt>
      <trkpt lat="44.32798" lon="6.33271">
        <ele>1472.4</ele>
        <time>2022-04-18T11:55:02Z</time>
      </trkpt>
      <trkpt lat="44.32793" lon="6.33277">
        <ele>1472.88</ele>
        <time>2022-04-18T11:55:23Z</time>
      </trkpt>
      <trkpt lat="44.32787" lon="6.33283">
        <ele>1473.84</ele>
        <time>2022-04-18T11:55:45Z</time>
      </trkpt>
      <trkpt lat="44.32783" lon="6.33288">
        <ele>1474.32</ele>
        <time>2022-04-18T11:56:05Z</time>
      </trkpt>
      <trkpt lat="44.32776" lon="6.33294">
        <ele>1475.28</ele>
        <time>2022-04-18T11:56:23Z</time>
      </trkpt>
      <trkpt lat="44.32771" lon="6.33298">
        <ele>1475.28</ele>
        <time>2022-04-18T11:56:39Z</time>
      </trkpt>
      <trkpt lat="44.32764" lon="6.33303">
        <ele>1478.16</ele>
        <time>2022-04-18T11:57:07Z</time>
      </trkpt>
      <trkpt lat="44.32758" lon="6.3331">
        <ele>1479.61</ele>
        <time>2022-04-18T11:57:27Z</time>
      </trkpt>
      <trkpt lat="44.32754" lon="6.33315">
        <ele>1481.53</ele>
        <time>2022-04-18T11:57:44Z</time>
      </trkpt>
      <trkpt lat="44.32748" lon="6.3332">
        <ele>1483.93</ele>
        <time>2022-04-18T11:58:04Z</time>
      </trkpt>
      <trkpt lat="44.32741" lon="6.33324">
        <ele>1487.78</ele>
        <time>2022-04-18T11:58:21Z</time>
      </trkpt>
      <trkpt lat="44.32736" lon="6.33328">
        <ele>1490.66</ele>
        <time>2022-04-18T11:58:39Z</time>
      </trkpt>
      <trkpt lat="44.32732" lon="6.33331">
        <ele>1493.55</ele>
        <time>2022-04-18T11:59:02Z</time>
      </trkpt>
      <trkpt lat="44.32727" lon="6.33337">
        <ele>1497.39</ele>
        <time>2022-04-18T11:59:28Z</time>
      </trkpt>
      <trkpt lat="44.32723" lon="6.3334">
        <ele>1496.91</ele>
        <time>2022-04-18T11:59:48Z</time>
      </trkpt>
      <trkpt lat="44.32721" lon="6.33343">
        <ele>1496.91</ele>
        <time>2022-04-18T12:00:05Z</time>
      </trkpt>
      <trkpt lat="44.32716" lon="6.33347">
        <ele>1496.91</ele>
        <time>2022-04-18T12:00:24Z</time>
      </trkpt>
      <trkpt lat="44.32708" lon="6.33351">
        <ele>1495.95</ele>
        <time>2022-04-18T12:00:38Z</time>
      </trkpt>
      <trkpt lat="44.32702" lon="6.33356">
        <ele>1495.95</ele>
        <time>2022-04-18T12:00:54Z</time>
      </trkpt>
      <trkpt lat="44.32694" lon="6.33359">
        <ele>1495.95</ele>
        <time>2022-04-18T12:01:08Z</time>
      </trkpt>
      <trkpt lat="44.32685" lon="6.33361">
        <ele>1494.03</ele>
        <time>2022-04-18T12:01:22Z</time>
      </trkpt>
      <trkpt lat="44.32678" lon="6.33363">
        <ele>1495.47</ele>
        <time>2022-04-18T12:01:37Z</time>
      </trkpt>
      <trkpt lat="44.32673" lon="6.33364">
        <ele>1497.87</ele>
        <time>2022-04-18T12:01:53Z</time>
      </trkpt>
      <trkpt lat="44.32668" lon="6.33366">
        <ele>1500.27</ele>
        <time>2022-04-18T12:02:09Z</time>
      </trkpt>
      <trkpt lat="44.32662" lon="6.33367">
        <ele>1502.2</ele>
        <time>2022-04-18T12:02:29Z</time>
      </trkpt>
      <trkpt lat="44.32655" lon="6.33368">
        <ele>1504.12</ele>
        <time>2022-04-18T12:02:45Z</time>
      </trkpt>
      <trkpt lat="44.32648" lon="6.33371">
        <ele>1505.56</ele>
        <time>2022-04-18T12:03:02Z</time>
      </trkpt>
      <trkpt lat="44.32632" lon="6.33374">
        <ele>1506.04</ele>
        <time>2022-04-18T12:03:17Z</time>
      </trkpt>
      <trkpt lat="44.32612" lon="6.33375">
        <ele>1506.04</ele>
        <time>2022-04-18T12:03:33Z</time>
      </trkpt>
      <trkpt lat="44.32596" lon="6.33378">
        <ele>1506.04</ele>
        <time>2022-04-18T12:03:48Z</time>
      </trkpt>
      <trkpt lat="44.3258" lon="6.33378">
        <ele>1505.56</ele>
        <time>2022-04-18T12:04:06Z</time>
      </trkpt>
      <trkpt lat="44.32564" lon="6.33369">
        <ele>1502.2</ele>
        <time>2022-04-18T12:04:27Z</time>
      </trkpt>
      <trkpt lat="44.32554" lon="6.33369">
        <ele>1502.2</ele>
        <time>2022-04-18T12:04:48Z</time>
      </trkpt>
      <trkpt lat="44.32547" lon="6.33372">
        <ele>1504.12</ele>
        <time>2022-04-18T12:05:06Z</time>
      </trkpt>
      <trkpt lat="44.32539" lon="6.33377">
        <ele>1506.04</ele>
        <time>2022-04-18T12:05:25Z</time>
      </trkpt>
      <trkpt lat="44.32529" lon="6.33379">
        <ele>1507</ele>
        <time>2022-04-18T12:05:51Z</time>
      </trkpt>
      <trkpt lat="44.32509" lon="6.33382">
        <ele>1508.45</ele>
        <time>2022-04-18T12:06:08Z</time>
      </trkpt>
      <trkpt lat="44.32486" lon="6.33388">
        <ele>1510.37</ele>
        <time>2022-04-18T12:06:26Z</time>
      </trkpt>
      <trkpt lat="44.32473" lon="6.33391">
        <ele>1510.85</ele>
        <time>2022-04-18T12:06:44Z</time>
      </trkpt>
      <trkpt lat="44.3246" lon="6.33395">
        <ele>1509.89</ele>
        <time>2022-04-18T12:07:02Z</time>
      </trkpt>
      <trkpt lat="44.3245" lon="6.33397">
        <ele>1508.45</ele>
        <time>2022-04-18T12:07:22Z</time>
      </trkpt>
      <trkpt lat="44.32435" lon="6.33402">
        <ele>1509.41</ele>
        <time>2022-04-18T12:07:42Z</time>
      </trkpt>
      <trkpt lat="44.32428" lon="6.33404">
        <ele>1510.37</ele>
        <time>2022-04-18T12:07:59Z</time>
      </trkpt>
      <trkpt lat="44.32422" lon="6.33409">
        <ele>1512.29</ele>
        <time>2022-04-18T12:08:15Z</time>
      </trkpt>
      <trkpt lat="44.32418" lon="6.33412">
        <ele>1521.42</ele>
        <time>2022-04-18T12:08:49Z</time>
      </trkpt>
      <trkpt lat="44.32416" lon="6.33414">
        <ele>1524.79</ele>
        <time>2022-04-18T12:09:17Z</time>
      </trkpt>
      <trkpt lat="44.32415" lon="6.33414">
        <ele>1526.23</ele>
        <time>2022-04-18T12:09:34Z</time>
      </trkpt>
      <trkpt lat="44.32415" lon="6.33414">
        <ele>1527.67</ele>
        <time>2022-04-18T12:10:01Z</time>
      </trkpt>
      <trkpt lat="44.32416" lon="6.33416">
        <ele>1533.92</ele>
        <time>2022-04-18T12:10:28Z</time>
      </trkpt>
      <trkpt lat="44.32416" lon="6.33415">
        <ele>1534.4</ele>
        <time>2022-04-18T12:10:47Z</time>
      </trkpt>
      <trkpt lat="44.32415" lon="6.33416">
        <ele>1535.36</ele>
        <time>2022-04-18T12:11:04Z</time>
      </trkpt>
      <trkpt lat="44.32414" lon="6.33416">
        <ele>1536.32</ele>
        <time>2022-04-18T12:11:23Z</time>
      </trkpt>
      <trkpt lat="44.32413" lon="6.33417">
        <ele>1536.8</ele>
        <time>2022-04-18T12:11:41Z</time>
      </trkpt>
      <trkpt lat="44.32408" lon="6.33422">
        <ele>1538.25</ele>
        <time>2022-04-18T12:12:07Z</time>
      </trkpt>
      <trkpt lat="44.32395" lon="6.33429">
        <ele>1540.65</ele>
        <time>2022-04-18T12:12:23Z</time>
      </trkpt>
      <trkpt lat="44.32389" lon="6.33437">
        <ele>1543.05</ele>
        <time>2022-04-18T12:12:39Z</time>
      </trkpt>
      <trkpt lat="44.32377" lon="6.33448">
        <ele>1550.26</ele>
        <time>2022-04-18T12:12:54Z</time>
      </trkpt>
      <trkpt lat="44.32365" lon="6.33461">
        <ele>1554.59</ele>
        <time>2022-04-18T12:13:11Z</time>
      </trkpt>
      <trkpt lat="44.32357" lon="6.33467">
        <ele>1557.47</ele>
        <time>2022-04-18T12:13:26Z</time>
      </trkpt>
      <trkpt lat="44.32348" lon="6.33469">
        <ele>1561.8</ele>
        <time>2022-04-18T12:13:40Z</time>
      </trkpt>
      <trkpt lat="44.32345" lon="6.33468">
        <ele>1563.24</ele>
        <time>2022-04-18T12:13:58Z</time>
      </trkpt>
      <trkpt lat="44.32344" lon="6.33463">
        <ele>1563.24</ele>
        <time>2022-04-18T12:14:17Z</time>
      </trkpt>
      <trkpt lat="44.32341" lon="6.33472">
        <ele>1564.2</ele>
        <time>2022-04-18T12:14:38Z</time>
      </trkpt>
      <trkpt lat="44.3234" lon="6.33481">
        <ele>1564.2</ele>
        <time>2022-04-18T12:14:58Z</time>
      </trkpt>
      <trkpt lat="44.3234" lon="6.33481">
        <ele>1564.68</ele>
        <time>2022-04-18T12:15:32Z</time>
      </trkpt>
      <trkpt lat="44.32333" lon="6.33487">
        <ele>1564.2</ele>
        <time>2022-04-18T12:15:46Z</time>
      </trkpt>
      <trkpt lat="44.32327" lon="6.3349">
        <ele>1564.68</ele>
        <time>2022-04-18T12:16:08Z</time>
      </trkpt>
      <trkpt lat="44.32314" lon="6.33495">
        <ele>1564.68</ele>
        <time>2022-04-18T12:16:27Z</time>
      </trkpt>
      <trkpt lat="44.32309" lon="6.33503">
        <ele>1564.2</ele>
        <time>2022-04-18T12:16:47Z</time>
      </trkpt>
      <trkpt lat="44.32294" lon="6.33512">
        <ele>1561.8</ele>
        <time>2022-04-18T12:17:07Z</time>
      </trkpt>
      <trkpt lat="44.3228" lon="6.33515">
        <ele>1560.36</ele>
        <time>2022-04-18T12:17:22Z</time>
      </trkpt>
      <trkpt lat="44.32268" lon="6.33526">
        <ele>1563.24</ele>
        <time>2022-04-18T12:17:37Z</time>
      </trkpt>
      <trkpt lat="44.32256" lon="6.3354">
        <ele>1562.28</ele>
        <time>2022-04-18T12:17:54Z</time>
      </trkpt>
      <trkpt lat="44.32253" lon="6.33549">
        <ele>1560.84</ele>
        <time>2022-04-18T12:18:13Z</time>
      </trkpt>
      <trkpt lat="44.32253" lon="6.3355">
        <ele>1560.36</ele>
        <time>2022-04-18T12:18:34Z</time>
      </trkpt>
      <trkpt lat="44.3225" lon="6.33559">
        <ele>1558.92</ele>
        <time>2022-04-18T12:18:53Z</time>
      </trkpt>
      <trkpt lat="44.32245" lon="6.33576">
        <ele>1554.59</ele>
        <time>2022-04-18T12:19:09Z</time>
      </trkpt>
      <trkpt lat="44.32241" lon="6.33588">
        <ele>1553.15</ele>
        <time>2022-04-18T12:19:26Z</time>
      </trkpt>
      <trkpt lat="44.32235" lon="6.33596">
        <ele>1552.19</ele>
        <time>2022-04-18T12:19:40Z</time>
      </trkpt>
      <trkpt lat="44.3223" lon="6.33603">
        <ele>1550.74</ele>
        <time>2022-04-18T12:19:55Z</time>
      </trkpt>
      <trkpt lat="44.32223" lon="6.3361">
        <ele>1551.22</ele>
        <time>2022-04-18T12:20:08Z</time>
      </trkpt>
      <trkpt lat="44.32213" lon="6.33616">
        <ele>1552.67</ele>
        <time>2022-04-18T12:20:21Z</time>
      </trkpt>
      <trkpt lat="44.32207" lon="6.33632">
        <ele>1551.22</ele>
        <time>2022-04-18T12:20:41Z</time>
      </trkpt>
      <trkpt lat="44.32202" lon="6.33642">
        <ele>1550.26</ele>
        <time>2022-04-18T12:20:58Z</time>
      </trkpt>
      <trkpt lat="44.32199" lon="6.3365">
        <ele>1547.86</ele>
        <time>2022-04-18T12:21:16Z</time>
      </trkpt>
      <trkpt lat="44.32193" lon="6.3366">
        <ele>1546.9</ele>
        <time>2022-04-18T12:21:33Z</time>
      </trkpt>
      <trkpt lat="44.32185" lon="6.33668">
        <ele>1544.5</ele>
        <time>2022-04-18T12:21:51Z</time>
      </trkpt>
      <trkpt lat="44.32174" lon="6.33682">
        <ele>1541.13</ele>
        <time>2022-04-18T12:22:09Z</time>
      </trkpt>
      <trkpt lat="44.32173" lon="6.33692">
        <ele>1540.65</ele>
        <time>2022-04-18T12:22:28Z</time>
      </trkpt>
      <trkpt lat="44.32163" lon="6.33707">
        <ele>1538.25</ele>
        <time>2022-04-18T12:22:46Z</time>
      </trkpt>
      <trkpt lat="44.32152" lon="6.33726">
        <ele>1537.29</ele>
        <time>2022-04-18T12:23:06Z</time>
      </trkpt>
      <trkpt lat="44.32143" lon="6.33734">
        <ele>1537.29</ele>
        <time>2022-04-18T12:23:24Z</time>
      </trkpt>
      <trkpt lat="44.32131" lon="6.33745">
        <ele>1537.77</ele>
        <time>2022-04-18T12:23:39Z</time>
      </trkpt>
      <trkpt lat="44.32125" lon="6.33752">
        <ele>1537.29</ele>
        <time>2022-04-18T12:23:59Z</time>
      </trkpt>
      <trkpt lat="44.3212" lon="6.33764">
        <ele>1536.32</ele>
        <time>2022-04-18T12:24:22Z</time>
      </trkpt>
      <trkpt lat="44.32116" lon="6.33777">
        <ele>1535.84</ele>
        <time>2022-04-18T12:24:45Z</time>
      </trkpt>
      <trkpt lat="44.32115" lon="6.33782">
        <ele>1536.8</ele>
        <time>2022-04-18T12:25:06Z</time>
      </trkpt>
      <trkpt lat="44.3211" lon="6.33783">
        <ele>1539.21</ele>
        <time>2022-04-18T12:25:23Z</time>
      </trkpt>
      <trkpt lat="44.32104" lon="6.33791">
        <ele>1541.13</ele>
        <time>2022-04-18T12:25:39Z</time>
      </trkpt>
      <trkpt lat="44.32103" lon="6.33795">
        <ele>1542.57</ele>
        <time>2022-04-18T12:25:57Z</time>
      </trkpt>
      <trkpt lat="44.321" lon="6.33799">
        <ele>1544.01</ele>
        <time>2022-04-18T12:26:19Z</time>
      </trkpt>
      <trkpt lat="44.32098" lon="6.33802">
        <ele>1545.94</ele>
        <time>2022-04-18T12:26:42Z</time>
      </trkpt>
      <trkpt lat="44.32096" lon="6.33805">
        <ele>1547.86</ele>
        <time>2022-04-18T12:27:04Z</time>
      </trkpt>
      <trkpt lat="44.32089" lon="6.33811">
        <ele>1550.74</ele>
        <time>2022-04-18T12:27:19Z</time>
      </trkpt>
      <trkpt lat="44.32088" lon="6.33813">
        <ele>1552.19</ele>
        <time>2022-04-18T12:27:39Z</time>
      </trkpt>
      <trkpt lat="44.32088" lon="6.33812">
        <ele>1553.15</ele>
        <time>2022-04-18T12:28:04Z</time>
      </trkpt>
      <trkpt lat="44.32088" lon="6.33813">
        <ele>1555.07</ele>
        <time>2022-04-18T12:28:28Z</time>
      </trkpt>
      <trkpt lat="44.32088" lon="6.33812">
        <ele>1556.51</ele>
        <time>2022-04-18T12:28:56Z</time>
      </trkpt>
      <trkpt lat="44.32086" lon="6.33816">
        <ele>1556.99</ele>
        <time>2022-04-18T12:29:13Z</time>
      </trkpt>
      <trkpt lat="44.32085" lon="6.33817">
        <ele>1557.95</ele>
        <time>2022-04-18T12:29:41Z</time>
      </trkpt>
      <trkpt lat="44.32085" lon="6.33817">
        <ele>1558.43</ele>
        <time>2022-04-18T12:30:02Z</time>
      </trkpt>
      <trkpt lat="44.32084" lon="6.33818">
        <ele>1558.92</ele>
        <time>2022-04-18T12:30:20Z</time>
      </trkpt>
      <trkpt lat="44.32083" lon="6.33819">
        <ele>1559.4</ele>
        <time>2022-04-18T12:30:39Z</time>
      </trkpt>
      <trkpt lat="44.32083" lon="6.33819">
        <ele>1559.88</ele>
        <time>2022-04-18T12:31:03Z</time>
      </trkpt>
      <trkpt lat="44.32082" lon="6.33823">
        <ele>1562.76</ele>
        <time>2022-04-18T12:31:19Z</time>
      </trkpt>
      <trkpt lat="44.32078" lon="6.33827">
        <ele>1564.68</ele>
        <time>2022-04-18T12:31:33Z</time>
      </trkpt>
      <trkpt lat="44.32078" lon="6.33829">
        <ele>1566.12</ele>
        <time>2022-04-18T12:31:58Z</time>
      </trkpt>
      <trkpt lat="44.32078" lon="6.3383">
        <ele>1567.09</ele>
        <time>2022-04-18T12:32:27Z</time>
      </trkpt>
      <trkpt lat="44.32078" lon="6.3383">
        <ele>1567.57</ele>
        <time>2022-04-18T12:32:50Z</time>
      </trkpt>
      <trkpt lat="44.32077" lon="6.33831">
        <ele>1568.05</ele>
        <time>2022-04-18T12:33:13Z</time>
      </trkpt>
      <trkpt lat="44.3207" lon="6.33841">
        <ele>1570.45</ele>
        <time>2022-04-18T12:33:29Z</time>
      </trkpt>
      <trkpt lat="44.32067" lon="6.3385">
        <ele>1572.37</ele>
        <time>2022-04-18T12:33:47Z</time>
      </trkpt>
      <trkpt lat="44.32065" lon="6.33862">
        <ele>1576.7</ele>
        <time>2022-04-18T12:34:04Z</time>
      </trkpt>
      <trkpt lat="44.32062" lon="6.3387">
        <ele>1578.14</ele>
        <time>2022-04-18T12:34:24Z</time>
      </trkpt>
      <trkpt lat="44.32062" lon="6.3387">
        <ele>1579.58</ele>
        <time>2022-04-18T12:34:58Z</time>
      </trkpt>
      <trkpt lat="44.32059" lon="6.33865">
        <ele>1582.47</ele>
        <time>2022-04-18T12:35:17Z</time>
      </trkpt>
      <trkpt lat="44.32058" lon="6.33864">
        <ele>1581.99</ele>
        <time>2022-04-18T12:35:36Z</time>
      </trkpt>
      <trkpt lat="44.32053" lon="6.33864">
        <ele>1584.39</ele>
        <time>2022-04-18T12:35:58Z</time>
      </trkpt>
      <trkpt lat="44.32051" lon="6.33865">
        <ele>1585.83</ele>
        <time>2022-04-18T12:36:17Z</time>
      </trkpt>
      <trkpt lat="44.32046" lon="6.33867">
        <ele>1586.31</ele>
        <time>2022-04-18T12:36:38Z</time>
      </trkpt>
      <trkpt lat="44.32041" lon="6.33872">
        <ele>1587.27</ele>
        <time>2022-04-18T12:36:52Z</time>
      </trkpt>
      <trkpt lat="44.32041" lon="6.33872">
        <ele>1587.75</ele>
        <time>2022-04-18T12:37:12Z</time>
      </trkpt>
      <trkpt lat="44.32038" lon="6.33876">
        <ele>1589.68</ele>
        <time>2022-04-18T12:37:34Z</time>
      </trkpt>
      <trkpt lat="44.32037" lon="6.33885">
        <ele>1592.56</ele>
        <time>2022-04-18T12:37:50Z</time>
      </trkpt>
      <trkpt lat="44.32035" lon="6.33888">
        <ele>1595.45</ele>
        <time>2022-04-18T12:38:05Z</time>
      </trkpt>
      <trkpt lat="44.32035" lon="6.33889">
        <ele>1597.85</ele>
        <time>2022-04-18T12:38:25Z</time>
      </trkpt>
      <trkpt lat="44.32035" lon="6.33889">
        <ele>1597.85</ele>
        <time>2022-04-18T12:38:43Z</time>
      </trkpt>
      <trkpt lat="44.32035" lon="6.33889">
        <ele>1597.85</ele>
        <time>2022-04-18T12:39:04Z</time>
      </trkpt>
      <trkpt lat="44.32035" lon="6.33889">
        <ele>1597.85</ele>
        <time>2022-04-18T12:39:25Z</time>
      </trkpt>
      <trkpt lat="44.32035" lon="6.33889">
        <ele>1597.85</ele>
        <time>2022-04-18T12:39:54Z</time>
      </trkpt>
      <trkpt lat="44.32034" lon="6.3389">
        <ele>1597.85</ele>
        <time>2022-04-18T12:40:24Z</time>
      </trkpt>
      <trkpt lat="44.32035" lon="6.3389">
        <ele>1597.85</ele>
        <time>2022-04-18T12:40:55Z</time>
      </trkpt>
      <trkpt lat="44.32035" lon="6.3389">
        <ele>1598.33</ele>
        <time>2022-04-18T12:41:20Z</time>
      </trkpt>
      <trkpt lat="44.32034" lon="6.3389">
        <ele>1598.33</ele>
        <time>2022-04-18T12:41:43Z</time>
      </trkpt>
      <trkpt lat="44.32034" lon="6.33889">
        <ele>1598.81</ele>
        <time>2022-04-18T12:42:07Z</time>
      </trkpt>
      <trkpt lat="44.32034" lon="6.33889">
        <ele>1598.81</ele>
        <time>2022-04-18T12:42:34Z</time>
      </trkpt>
      <trkpt lat="44.32034" lon="6.33889">
        <ele>1598.81</ele>
        <time>2022-04-18T12:42:59Z</time>
      </trkpt>
      <trkpt lat="44.32034" lon="6.33889">
        <ele>1598.81</ele>
        <time>2022-04-18T12:43:32Z</time>
      </trkpt>
      <trkpt lat="44.32033" lon="6.3389">
        <ele>1598.81</ele>
        <time>2022-04-18T12:44:01Z</time>
      </trkpt>
      <trkpt lat="44.32033" lon="6.3389">
        <ele>1598.33</ele>
        <time>2022-04-18T12:44:26Z</time>
      </trkpt>
      <trkpt lat="44.32033" lon="6.33889">
        <ele>1598.33</ele>
        <time>2022-04-18T12:44:49Z</time>
      </trkpt>
      <trkpt lat="44.32033" lon="6.33889">
        <ele>1598.81</ele>
        <time>2022-04-18T12:45:11Z</time>
      </trkpt>
      <trkpt lat="44.32034" lon="6.33889">
        <ele>1598.81</ele>
        <time>2022-04-18T12:45:31Z</time>
      </trkpt>
      <trkpt lat="44.32035" lon="6.33889">
        <ele>1599.29</ele>
        <time>2022-04-18T12:45:50Z</time>
      </trkpt>
      <trkpt lat="44.32031" lon="6.3389">
        <ele>1598.81</ele>
        <time>2022-04-18T12:45:55Z</time>
      </trkpt>
      <trkpt lat="44.32015" lon="6.33892">
        <ele>1596.41</ele>
        <time>2022-04-18T12:46:11Z</time>
      </trkpt>
      <trkpt lat="44.31999" lon="6.339">
        <ele>1596.89</ele>
        <time>2022-04-18T12:46:31Z</time>
      </trkpt>
      <trkpt lat="44.31988" lon="6.33901">
        <ele>1599.29</ele>
        <time>2022-04-18T12:46:44Z</time>
      </trkpt>
      <trkpt lat="44.31974" lon="6.33911">
        <ele>1599.77</ele>
        <time>2022-04-18T12:47:01Z</time>
      </trkpt>
      <trkpt lat="44.31963" lon="6.33922">
        <ele>1600.25</ele>
        <time>2022-04-18T12:47:18Z</time>
      </trkpt>
      <trkpt lat="44.31955" lon="6.33927">
        <ele>1601.21</ele>
        <time>2022-04-18T12:47:36Z</time>
      </trkpt>
      <trkpt lat="44.3194" lon="6.33936">
        <ele>1603.62</ele>
        <time>2022-04-18T12:47:55Z</time>
      </trkpt>
      <trkpt lat="44.31927" lon="6.33946">
        <ele>1605.06</ele>
        <time>2022-04-18T12:48:11Z</time>
      </trkpt>
      <trkpt lat="44.31919" lon="6.33952">
        <ele>1606.02</ele>
        <time>2022-04-18T12:48:29Z</time>
      </trkpt>
      <trkpt lat="44.31908" lon="6.3396">
        <ele>1606.5</ele>
        <time>2022-04-18T12:48:45Z</time>
      </trkpt>
      <trkpt lat="44.31897" lon="6.33962">
        <ele>1606.98</ele>
        <time>2022-04-18T12:49:00Z</time>
      </trkpt>
      <trkpt lat="44.31885" lon="6.33962">
        <ele>1606.98</ele>
        <time>2022-04-18T12:49:17Z</time>
      </trkpt>
      <trkpt lat="44.31869" lon="6.33964">
        <ele>1604.58</ele>
        <time>2022-04-18T12:49:34Z</time>
      </trkpt>
      <trkpt lat="44.3186" lon="6.33969">
        <ele>1603.62</ele>
        <time>2022-04-18T12:49:51Z</time>
      </trkpt>
      <trkpt lat="44.31856" lon="6.3397">
        <ele>1603.14</ele>
        <time>2022-04-18T12:50:11Z</time>
      </trkpt>
      <trkpt lat="44.31845" lon="6.33972">
        <ele>1600.73</ele>
        <time>2022-04-18T12:50:29Z</time>
      </trkpt>
      <trkpt lat="44.31834" lon="6.33979">
        <ele>1597.85</ele>
        <time>2022-04-18T12:50:44Z</time>
      </trkpt>
      <trkpt lat="44.31825" lon="6.33981">
        <ele>1595.93</ele>
        <time>2022-04-18T12:50:59Z</time>
      </trkpt>
      <trkpt lat="44.31815" lon="6.33984">
        <ele>1594.48</ele>
        <time>2022-04-18T12:51:19Z</time>
      </trkpt>
      <trkpt lat="44.31801" lon="6.33984">
        <ele>1592.08</ele>
        <time>2022-04-18T12:51:38Z</time>
      </trkpt>
      <trkpt lat="44.3179" lon="6.33986">
        <ele>1590.64</ele>
        <time>2022-04-18T12:51:55Z</time>
      </trkpt>
      <trkpt lat="44.31779" lon="6.33988">
        <ele>1590.16</ele>
        <time>2022-04-18T12:52:12Z</time>
      </trkpt>
      <trkpt lat="44.31772" lon="6.33985">
        <ele>1588.72</ele>
        <time>2022-04-18T12:52:27Z</time>
      </trkpt>
      <trkpt lat="44.3177" lon="6.33987">
        <ele>1589.68</ele>
        <time>2022-04-18T12:52:46Z</time>
      </trkpt>
      <trkpt lat="44.31755" lon="6.33991">
        <ele>1588.72</ele>
        <time>2022-04-18T12:53:02Z</time>
      </trkpt>
      <trkpt lat="44.31742" lon="6.33999">
        <ele>1588.72</ele>
        <time>2022-04-18T12:53:18Z</time>
      </trkpt>
      <trkpt lat="44.31727" lon="6.34009">
        <ele>1590.16</ele>
        <time>2022-04-18T12:53:36Z</time>
      </trkpt>
      <trkpt lat="44.31715" lon="6.34015">
        <ele>1593.52</ele>
        <time>2022-04-18T12:53:55Z</time>
      </trkpt>
      <trkpt lat="44.31698" lon="6.34021">
        <ele>1596.41</ele>
        <time>2022-04-18T12:54:15Z</time>
      </trkpt>
      <trkpt lat="44.31686" lon="6.34018">
        <ele>1602.17</ele>
        <time>2022-04-18T12:54:32Z</time>
      </trkpt>
      <trkpt lat="44.31675" lon="6.34022">
        <ele>1604.58</ele>
        <time>2022-04-18T12:54:49Z</time>
      </trkpt>
      <trkpt lat="44.31662" lon="6.34028">
        <ele>1606.02</ele>
        <time>2022-04-18T12:55:05Z</time>
      </trkpt>
      <trkpt lat="44.3165" lon="6.34033">
        <ele>1606.5</ele>
        <time>2022-04-18T12:55:20Z</time>
      </trkpt>
      <trkpt lat="44.31639" lon="6.34036">
        <ele>1607.94</ele>
        <time>2022-04-18T12:55:37Z</time>
      </trkpt>
      <trkpt lat="44.31633" lon="6.34039">
        <ele>1608.42</ele>
        <time>2022-04-18T12:56:01Z</time>
      </trkpt>
      <trkpt lat="44.31622" lon="6.34045">
        <ele>1609.38</ele>
        <time>2022-04-18T12:56:17Z</time>
      </trkpt>
      <trkpt lat="44.31608" lon="6.3405">
        <ele>1611.31</ele>
        <time>2022-04-18T12:56:36Z</time>
      </trkpt>
      <trkpt lat="44.31591" lon="6.34057">
        <ele>1611.79</ele>
        <time>2022-04-18T12:56:57Z</time>
      </trkpt>
      <trkpt lat="44.31576" lon="6.3406">
        <ele>1611.79</ele>
        <time>2022-04-18T12:57:16Z</time>
      </trkpt>
      <trkpt lat="44.31561" lon="6.34061">
        <ele>1614.19</ele>
        <time>2022-04-18T12:57:33Z</time>
      </trkpt>
      <trkpt lat="44.31545" lon="6.3406">
        <ele>1614.19</ele>
        <time>2022-04-18T12:57:51Z</time>
      </trkpt>
      <trkpt lat="44.31527" lon="6.34065">
        <ele>1613.23</ele>
        <time>2022-04-18T12:58:09Z</time>
      </trkpt>
      <trkpt lat="44.31512" lon="6.3406">
        <ele>1611.79</ele>
        <time>2022-04-18T12:58:25Z</time>
      </trkpt>
      <trkpt lat="44.31502" lon="6.34054">
        <ele>1610.35</ele>
        <time>2022-04-18T12:58:40Z</time>
      </trkpt>
      <trkpt lat="44.31489" lon="6.3405">
        <ele>1609.38</ele>
        <time>2022-04-18T12:58:57Z</time>
      </trkpt>
      <trkpt lat="44.31482" lon="6.34047">
        <ele>1608.42</ele>
        <time>2022-04-18T12:59:16Z</time>
      </trkpt>
      <trkpt lat="44.31467" lon="6.34051">
        <ele>1610.83</ele>
        <time>2022-04-18T12:59:32Z</time>
      </trkpt>
      <trkpt lat="44.31456" lon="6.34047">
        <ele>1611.31</ele>
        <time>2022-04-18T12:59:47Z</time>
      </trkpt>
      <trkpt lat="44.31444" lon="6.34044">
        <ele>1607.46</ele>
        <time>2022-04-18T13:00:06Z</time>
      </trkpt>
      <trkpt lat="44.31432" lon="6.34039">
        <ele>1609.86</ele>
        <time>2022-04-18T13:00:20Z</time>
      </trkpt>
      <trkpt lat="44.31429" lon="6.34042">
        <ele>1611.31</ele>
        <time>2022-04-18T13:00:40Z</time>
      </trkpt>
      <trkpt lat="44.31424" lon="6.34045">
        <ele>1613.71</ele>
        <time>2022-04-18T13:00:57Z</time>
      </trkpt>
      <trkpt lat="44.31409" lon="6.34044">
        <ele>1612.27</ele>
        <time>2022-04-18T13:01:12Z</time>
      </trkpt>
      <trkpt lat="44.31396" lon="6.34055">
        <ele>1612.75</ele>
        <time>2022-04-18T13:01:29Z</time>
      </trkpt>
      <trkpt lat="44.31392" lon="6.34058">
        <ele>1613.23</ele>
        <time>2022-04-18T13:01:44Z</time>
      </trkpt>
      <trkpt lat="44.31391" lon="6.34057">
        <ele>1614.19</ele>
        <time>2022-04-18T13:02:07Z</time>
      </trkpt>
      <trkpt lat="44.31387" lon="6.34063">
        <ele>1614.19</ele>
        <time>2022-04-18T13:02:27Z</time>
      </trkpt>
      <trkpt lat="44.31369" lon="6.3407">
        <ele>1616.11</ele>
        <time>2022-04-18T13:02:43Z</time>
      </trkpt>
      <trkpt lat="44.31366" lon="6.34072">
        <ele>1618.52</ele>
        <time>2022-04-18T13:03:03Z</time>
      </trkpt>
      <trkpt lat="44.31365" lon="6.34071">
        <ele>1619</ele>
        <time>2022-04-18T13:03:29Z</time>
      </trkpt>
      <trkpt lat="44.31358" lon="6.34076">
        <ele>1619.96</ele>
        <time>2022-04-18T13:03:54Z</time>
      </trkpt>
      <trkpt lat="44.31343" lon="6.34089">
        <ele>1620.44</ele>
        <time>2022-04-18T13:04:09Z</time>
      </trkpt>
      <trkpt lat="44.31324" lon="6.34105">
        <ele>1619.96</ele>
        <time>2022-04-18T13:04:27Z</time>
      </trkpt>
      <trkpt lat="44.31316" lon="6.34109">
        <ele>1620.44</ele>
        <time>2022-04-18T13:04:44Z</time>
      </trkpt>
      <trkpt lat="44.31316" lon="6.34112">
        <ele>1620.92</ele>
        <time>2022-04-18T13:05:10Z</time>
      </trkpt>
      <trkpt lat="44.31315" lon="6.3412">
        <ele>1620.92</ele>
        <time>2022-04-18T13:05:15Z</time>
      </trkpt>
      <trkpt lat="44.31319" lon="6.34146">
        <ele>1620.92</ele>
        <time>2022-04-18T13:05:31Z</time>
      </trkpt>
      <trkpt lat="44.31325" lon="6.34168">
        <ele>1622.36</ele>
        <time>2022-04-18T13:05:47Z</time>
      </trkpt>
      <trkpt lat="44.31324" lon="6.34193">
        <ele>1622.84</ele>
        <time>2022-04-18T13:06:04Z</time>
      </trkpt>
      <trkpt lat="44.31315" lon="6.34213">
        <ele>1623.8</ele>
        <time>2022-04-18T13:06:20Z</time>
      </trkpt>
      <trkpt lat="44.31309" lon="6.34216">
        <ele>1623.32</ele>
        <time>2022-04-18T13:06:28Z</time>
      </trkpt>
      <trkpt lat="44.31294" lon="6.34218">
        <ele>1623.32</ele>
        <time>2022-04-18T13:06:43Z</time>
      </trkpt>
      <trkpt lat="44.31293" lon="6.34219">
        <ele>1623.32</ele>
        <time>2022-04-18T13:07:04Z</time>
      </trkpt>
      <trkpt lat="44.31293" lon="6.3422">
        <ele>1624.28</ele>
        <time>2022-04-18T13:07:33Z</time>
      </trkpt>
      <trkpt lat="44.31292" lon="6.34221">
        <ele>1625.25</ele>
        <time>2022-04-18T13:08:10Z</time>
      </trkpt>
      <trkpt lat="44.31294" lon="6.34223">
        <ele>1626.69</ele>
        <time>2022-04-18T13:08:45Z</time>
      </trkpt>
      <trkpt lat="44.31305" lon="6.3422">
        <ele>1626.21</ele>
        <time>2022-04-18T13:09:02Z</time>
      </trkpt>
      <trkpt lat="44.31321" lon="6.34213">
        <ele>1624.77</ele>
        <time>2022-04-18T13:09:20Z</time>
      </trkpt>
      <trkpt lat="44.3133" lon="6.34189">
        <ele>1626.69</ele>
        <time>2022-04-18T13:09:38Z</time>
      </trkpt>
      <trkpt lat="44.31331" lon="6.34186">
        <ele>1627.17</ele>
        <time>2022-04-18T13:10:01Z</time>
      </trkpt>
      <trkpt lat="44.31331" lon="6.34186">
        <ele>1626.69</ele>
        <time>2022-04-18T13:10:31Z</time>
      </trkpt>
      <trkpt lat="44.31331" lon="6.34185">
        <ele>1627.17</ele>
        <time>2022-04-18T13:11:02Z</time>
      </trkpt>
      <trkpt lat="44.3133" lon="6.34173">
        <ele>1626.69</ele>
        <time>2022-04-18T13:11:23Z</time>
      </trkpt>
      <trkpt lat="44.31329" lon="6.34156">
        <ele>1626.21</ele>
        <time>2022-04-18T13:11:39Z</time>
      </trkpt>
      <trkpt lat="44.31323" lon="6.3414">
        <ele>1626.69</ele>
        <time>2022-04-18T13:11:55Z</time>
      </trkpt>
      <trkpt lat="44.31319" lon="6.34123">
        <ele>1623.8</ele>
        <time>2022-04-18T13:12:11Z</time>
      </trkpt>
      <trkpt lat="44.31322" lon="6.34111">
        <ele>1620.92</ele>
        <time>2022-04-18T13:12:24Z</time>
      </trkpt>
      <trkpt lat="44.31329" lon="6.34103">
        <ele>1615.63</ele>
        <time>2022-04-18T13:12:40Z</time>
      </trkpt>
      <trkpt lat="44.31336" lon="6.34099">
        <ele>1615.63</ele>
        <time>2022-04-18T13:12:55Z</time>
      </trkpt>
      <trkpt lat="44.3135" lon="6.34085">
        <ele>1614.19</ele>
        <time>2022-04-18T13:13:11Z</time>
      </trkpt>
      <trkpt lat="44.31368" lon="6.34072">
        <ele>1614.67</ele>
        <time>2022-04-18T13:13:30Z</time>
      </trkpt>
      <trkpt lat="44.31379" lon="6.34066">
        <ele>1613.71</ele>
        <time>2022-04-18T13:13:48Z</time>
      </trkpt>
      <trkpt lat="44.31394" lon="6.34069">
        <ele>1610.35</ele>
        <time>2022-04-18T13:14:06Z</time>
      </trkpt>
      <trkpt lat="44.31394" lon="6.3409">
        <ele>1609.38</ele>
        <time>2022-04-18T13:14:22Z</time>
      </trkpt>
      <trkpt lat="44.31391" lon="6.34103">
        <ele>1607.46</ele>
        <time>2022-04-18T13:14:39Z</time>
      </trkpt>
      <trkpt lat="44.31387" lon="6.34121">
        <ele>1609.86</ele>
        <time>2022-04-18T13:14:56Z</time>
      </trkpt>
      <trkpt lat="44.31387" lon="6.3414">
        <ele>1604.58</ele>
        <time>2022-04-18T13:15:12Z</time>
      </trkpt>
      <trkpt lat="44.31389" lon="6.34157">
        <ele>1600.73</ele>
        <time>2022-04-18T13:15:27Z</time>
      </trkpt>
      <trkpt lat="44.31398" lon="6.34172">
        <ele>1600.73</ele>
        <time>2022-04-18T13:15:41Z</time>
      </trkpt>
      <trkpt lat="44.31413" lon="6.3419">
        <ele>1602.66</ele>
        <time>2022-04-18T13:15:58Z</time>
      </trkpt>
      <trkpt lat="44.3142" lon="6.34208">
        <ele>1603.62</ele>
        <time>2022-04-18T13:16:12Z</time>
      </trkpt>
      <trkpt lat="44.31422" lon="6.34229">
        <ele>1606.98</ele>
        <time>2022-04-18T13:16:26Z</time>
      </trkpt>
      <trkpt lat="44.31426" lon="6.34258">
        <ele>1607.94</ele>
        <time>2022-04-18T13:16:46Z</time>
      </trkpt>
      <trkpt lat="44.31425" lon="6.34277">
        <ele>1607.46</ele>
        <time>2022-04-18T13:16:58Z</time>
      </trkpt>
      <trkpt lat="44.3142" lon="6.34297">
        <ele>1603.62</ele>
        <time>2022-04-18T13:17:17Z</time>
      </trkpt>
      <trkpt lat="44.3141" lon="6.34315">
        <ele>1600.73</ele>
        <time>2022-04-18T13:17:34Z</time>
      </trkpt>
      <trkpt lat="44.31399" lon="6.34333">
        <ele>1596.89</ele>
        <time>2022-04-18T13:17:53Z</time>
      </trkpt>
      <trkpt lat="44.31394" lon="6.34355">
        <ele>1594.48</ele>
        <time>2022-04-18T13:18:11Z</time>
      </trkpt>
      <trkpt lat="44.31387" lon="6.34376">
        <ele>1594.96</ele>
        <time>2022-04-18T13:18:28Z</time>
      </trkpt>
      <trkpt lat="44.31382" lon="6.34397">
        <ele>1596.41</ele>
        <time>2022-04-18T13:18:44Z</time>
      </trkpt>
      <trkpt lat="44.31377" lon="6.34427">
        <ele>1595.45</ele>
        <time>2022-04-18T13:19:02Z</time>
      </trkpt>
      <trkpt lat="44.31378" lon="6.3445">
        <ele>1593.04</ele>
        <time>2022-04-18T13:19:18Z</time>
      </trkpt>
      <trkpt lat="44.31383" lon="6.34481">
        <ele>1590.64</ele>
        <time>2022-04-18T13:19:39Z</time>
      </trkpt>
      <trkpt lat="44.31391" lon="6.34503">
        <ele>1588.72</ele>
        <time>2022-04-18T13:19:56Z</time>
      </trkpt>
      <trkpt lat="44.31401" lon="6.34512">
        <ele>1585.35</ele>
        <time>2022-04-18T13:20:14Z</time>
      </trkpt>
      <trkpt lat="44.31414" lon="6.34524">
        <ele>1583.91</ele>
        <time>2022-04-18T13:20:30Z</time>
      </trkpt>
      <trkpt lat="44.31421" lon="6.3454">
        <ele>1583.43</ele>
        <time>2022-04-18T13:20:45Z</time>
      </trkpt>
      <trkpt lat="44.31422" lon="6.34563">
        <ele>1583.91</ele>
        <time>2022-04-18T13:21:02Z</time>
      </trkpt>
      <trkpt lat="44.31419" lon="6.34582">
        <ele>1580.54</ele>
        <time>2022-04-18T13:21:20Z</time>
      </trkpt>
      <trkpt lat="44.31424" lon="6.34602">
        <ele>1578.14</ele>
        <time>2022-04-18T13:21:38Z</time>
      </trkpt>
      <trkpt lat="44.31428" lon="6.34609">
        <ele>1577.18</ele>
        <time>2022-04-18T13:21:54Z</time>
      </trkpt>
      <trkpt lat="44.31444" lon="6.34618">
        <ele>1579.1</ele>
        <time>2022-04-18T13:22:10Z</time>
      </trkpt>
      <trkpt lat="44.31455" lon="6.34622">
        <ele>1578.14</ele>
        <time>2022-04-18T13:22:27Z</time>
      </trkpt>
      <trkpt lat="44.31467" lon="6.34627">
        <ele>1571.41</ele>
        <time>2022-04-18T13:22:43Z</time>
      </trkpt>
      <trkpt lat="44.31481" lon="6.34638">
        <ele>1566.12</ele>
        <time>2022-04-18T13:23:00Z</time>
      </trkpt>
      <trkpt lat="44.31489" lon="6.34653">
        <ele>1564.2</ele>
        <time>2022-04-18T13:23:17Z</time>
      </trkpt>
      <trkpt lat="44.31501" lon="6.34669">
        <ele>1562.76</ele>
        <time>2022-04-18T13:23:36Z</time>
      </trkpt>
      <trkpt lat="44.31508" lon="6.34673">
        <ele>1562.76</ele>
        <time>2022-04-18T13:23:51Z</time>
      </trkpt>
      <trkpt lat="44.31521" lon="6.34682">
        <ele>1561.32</ele>
        <time>2022-04-18T13:24:08Z</time>
      </trkpt>
      <trkpt lat="44.31542" lon="6.34696">
        <ele>1561.8</ele>
        <time>2022-04-18T13:24:26Z</time>
      </trkpt>
      <trkpt lat="44.31552" lon="6.34704">
        <ele>1562.28</ele>
        <time>2022-04-18T13:24:41Z</time>
      </trkpt>
      <trkpt lat="44.31565" lon="6.34705">
        <ele>1561.32</ele>
        <time>2022-04-18T13:24:57Z</time>
      </trkpt>
      <trkpt lat="44.31581" lon="6.34705">
        <ele>1560.36</ele>
        <time>2022-04-18T13:25:12Z</time>
      </trkpt>
      <trkpt lat="44.31589" lon="6.34699">
        <ele>1560.36</ele>
        <time>2022-04-18T13:25:26Z</time>
      </trkpt>
      <trkpt lat="44.31593" lon="6.34697">
        <ele>1559.88</ele>
        <time>2022-04-18T13:25:45Z</time>
      </trkpt>
      <trkpt lat="44.31597" lon="6.34694">
        <ele>1560.36</ele>
        <time>2022-04-18T13:26:05Z</time>
      </trkpt>
      <trkpt lat="44.31605" lon="6.34689">
        <ele>1562.76</ele>
        <time>2022-04-18T13:26:20Z</time>
      </trkpt>
      <trkpt lat="44.31616" lon="6.34682">
        <ele>1563.24</ele>
        <time>2022-04-18T13:26:35Z</time>
      </trkpt>
      <trkpt lat="44.31629" lon="6.34672">
        <ele>1561.8</ele>
        <time>2022-04-18T13:26:50Z</time>
      </trkpt>
      <trkpt lat="44.31637" lon="6.34678">
        <ele>1559.4</ele>
        <time>2022-04-18T13:27:05Z</time>
      </trkpt>
      <trkpt lat="44.31648" lon="6.34687">
        <ele>1558.43</ele>
        <time>2022-04-18T13:27:21Z</time>
      </trkpt>
      <trkpt lat="44.31652" lon="6.34693">
        <ele>1558.92</ele>
        <time>2022-04-18T13:27:36Z</time>
      </trkpt>
      <trkpt lat="44.31649" lon="6.34705">
        <ele>1558.92</ele>
        <time>2022-04-18T13:27:51Z</time>
      </trkpt>
      <trkpt lat="44.31646" lon="6.34728">
        <ele>1557.47</ele>
        <time>2022-04-18T13:28:09Z</time>
      </trkpt>
      <trkpt lat="44.31634" lon="6.34744">
        <ele>1554.59</ele>
        <time>2022-04-18T13:28:24Z</time>
      </trkpt>
      <trkpt lat="44.31623" lon="6.34753">
        <ele>1552.19</ele>
        <time>2022-04-18T13:28:38Z</time>
      </trkpt>
      <trkpt lat="44.31613" lon="6.34765">
        <ele>1549.78</ele>
        <time>2022-04-18T13:28:54Z</time>
      </trkpt>
      <trkpt lat="44.31605" lon="6.3479">
        <ele>1551.22</ele>
        <time>2022-04-18T13:29:14Z</time>
      </trkpt>
      <trkpt lat="44.31598" lon="6.34815">
        <ele>1553.15</ele>
        <time>2022-04-18T13:29:34Z</time>
      </trkpt>
      <trkpt lat="44.31598" lon="6.34836">
        <ele>1552.19</ele>
        <time>2022-04-18T13:29:50Z</time>
      </trkpt>
      <trkpt lat="44.31586" lon="6.34851">
        <ele>1553.63</ele>
        <time>2022-04-18T13:30:05Z</time>
      </trkpt>
      <trkpt lat="44.31583" lon="6.34855">
        <ele>1552.19</ele>
        <time>2022-04-18T13:30:20Z</time>
      </trkpt>
      <trkpt lat="44.3157" lon="6.34869">
        <ele>1549.3</ele>
        <time>2022-04-18T13:30:37Z</time>
      </trkpt>
      <trkpt lat="44.31567" lon="6.34873">
        <ele>1547.86</ele>
        <time>2022-04-18T13:30:43Z</time>
      </trkpt>
      <trkpt lat="44.31554" lon="6.34883">
        <ele>1545.46</ele>
        <time>2022-04-18T13:30:59Z</time>
      </trkpt>
      <trkpt lat="44.31544" lon="6.34891">
        <ele>1543.05</ele>
        <time>2022-04-18T13:31:14Z</time>
      </trkpt>
      <trkpt lat="44.31529" lon="6.349">
        <ele>1541.13</ele>
        <time>2022-04-18T13:31:31Z</time>
      </trkpt>
      <trkpt lat="44.31515" lon="6.34907">
        <ele>1536.32</ele>
        <time>2022-04-18T13:31:48Z</time>
      </trkpt>
      <trkpt lat="44.31498" lon="6.3492">
        <ele>1534.4</ele>
        <time>2022-04-18T13:32:08Z</time>
      </trkpt>
      <trkpt lat="44.31502" lon="6.34934">
        <ele>1532.96</ele>
        <time>2022-04-18T13:32:22Z</time>
      </trkpt>
      <trkpt lat="44.31515" lon="6.34942">
        <ele>1530.56</ele>
        <time>2022-04-18T13:32:38Z</time>
      </trkpt>
      <trkpt lat="44.31529" lon="6.34944">
        <ele>1527.19</ele>
        <time>2022-04-18T13:32:59Z</time>
      </trkpt>
      <trkpt lat="44.3153" lon="6.34946">
        <ele>1527.67</ele>
        <time>2022-04-18T13:33:35Z</time>
      </trkpt>
      <trkpt lat="44.31539" lon="6.34949">
        <ele>1526.71</ele>
        <time>2022-04-18T13:33:52Z</time>
      </trkpt>
      <trkpt lat="44.31559" lon="6.3496">
        <ele>1523.83</ele>
        <time>2022-04-18T13:34:10Z</time>
      </trkpt>
      <trkpt lat="44.31572" lon="6.34965">
        <ele>1519.02</ele>
        <time>2022-04-18T13:34:29Z</time>
      </trkpt>
      <trkpt lat="44.31589" lon="6.3497">
        <ele>1516.14</ele>
        <time>2022-04-18T13:34:47Z</time>
      </trkpt>
      <trkpt lat="44.31603" lon="6.34975">
        <ele>1512.77</ele>
        <time>2022-04-18T13:35:04Z</time>
      </trkpt>
      <trkpt lat="44.31618" lon="6.34984">
        <ele>1510.37</ele>
        <time>2022-04-18T13:35:20Z</time>
      </trkpt>
      <trkpt lat="44.31634" lon="6.35005">
        <ele>1512.29</ele>
        <time>2022-04-18T13:35:39Z</time>
      </trkpt>
      <trkpt lat="44.31646" lon="6.35025">
        <ele>1510.37</ele>
        <time>2022-04-18T13:35:55Z</time>
      </trkpt>
      <trkpt lat="44.31659" lon="6.35037">
        <ele>1508.93</ele>
        <time>2022-04-18T13:36:09Z</time>
      </trkpt>
      <trkpt lat="44.31678" lon="6.3505">
        <ele>1511.33</ele>
        <time>2022-04-18T13:36:25Z</time>
      </trkpt>
      <trkpt lat="44.31683" lon="6.35054">
        <ele>1513.25</ele>
        <time>2022-04-18T13:36:44Z</time>
      </trkpt>
      <trkpt lat="44.31682" lon="6.35057">
        <ele>1512.77</ele>
        <time>2022-04-18T13:37:06Z</time>
      </trkpt>
      <trkpt lat="44.3168" lon="6.35056">
        <ele>1512.77</ele>
        <time>2022-04-18T13:37:33Z</time>
      </trkpt>
      <trkpt lat="44.31679" lon="6.35053">
        <ele>1512.29</ele>
        <time>2022-04-18T13:37:59Z</time>
      </trkpt>
      <trkpt lat="44.31679" lon="6.35053">
        <ele>1512.29</ele>
        <time>2022-04-18T13:38:26Z</time>
      </trkpt>
      <trkpt lat="44.31676" lon="6.35049">
        <ele>1512.77</ele>
        <time>2022-04-18T13:38:58Z</time>
      </trkpt>
      <trkpt lat="44.31676" lon="6.35046">
        <ele>1512.77</ele>
        <time>2022-04-18T13:39:26Z</time>
      </trkpt>
      <trkpt lat="44.31676" lon="6.35045">
        <ele>1512.77</ele>
        <time>2022-04-18T13:39:57Z</time>
      </trkpt>
      <trkpt lat="44.31677" lon="6.35042">
        <ele>1513.25</ele>
        <time>2022-04-18T13:40:16Z</time>
      </trkpt>
      <trkpt lat="44.31671" lon="6.35051">
        <ele>1513.73</ele>
        <time>2022-04-18T13:40:30Z</time>
      </trkpt>
      <trkpt lat="44.31669" lon="6.35049">
        <ele>1512.77</ele>
        <time>2022-04-18T13:40:58Z</time>
      </trkpt>
      <trkpt lat="44.31668" lon="6.35049">
        <ele>1513.73</ele>
        <time>2022-04-18T13:41:26Z</time>
      </trkpt>
      <trkpt lat="44.31669" lon="6.35049">
        <ele>1513.25</ele>
        <time>2022-04-18T13:41:58Z</time>
      </trkpt>
      <trkpt lat="44.31668" lon="6.35049">
        <ele>1513.73</ele>
        <time>2022-04-18T13:42:24Z</time>
      </trkpt>
      <trkpt lat="44.31669" lon="6.35049">
        <ele>1513.73</ele>
        <time>2022-04-18T13:42:46Z</time>
      </trkpt>
      <trkpt lat="44.31672" lon="6.35054">
        <ele>1513.25</ele>
        <time>2022-04-18T13:43:09Z</time>
      </trkpt>
      <trkpt lat="44.31671" lon="6.35055">
        <ele>1513.25</ele>
        <time>2022-04-18T13:43:36Z</time>
      </trkpt>
      <trkpt lat="44.31671" lon="6.35048">
        <ele>1513.73</ele>
        <time>2022-04-18T13:43:50Z</time>
      </trkpt>
      <trkpt lat="44.31672" lon="6.35052">
        <ele>1512.29</ele>
        <time>2022-04-18T13:44:08Z</time>
      </trkpt>
      <trkpt lat="44.31673" lon="6.35053">
        <ele>1512.77</ele>
        <time>2022-04-18T13:44:46Z</time>
      </trkpt>
      <trkpt lat="44.31672" lon="6.35054">
        <ele>1512.29</ele>
        <time>2022-04-18T13:45:08Z</time>
      </trkpt>
      <trkpt lat="44.31672" lon="6.35055">
        <ele>1512.29</ele>
        <time>2022-04-18T13:45:32Z</time>
      </trkpt>
      <trkpt lat="44.31672" lon="6.35055">
        <ele>1513.25</ele>
        <time>2022-04-18T13:45:49Z</time>
      </trkpt>
      <trkpt lat="44.31673" lon="6.35055">
        <ele>1513.25</ele>
        <time>2022-04-18T13:46:17Z</time>
      </trkpt>
      <trkpt lat="44.31672" lon="6.35055">
        <ele>1513.25</ele>
        <time>2022-04-18T13:46:50Z</time>
      </trkpt>
      <trkpt lat="44.31672" lon="6.35056">
        <ele>1513.25</ele>
        <time>2022-04-18T13:47:17Z</time>
      </trkpt>
      <trkpt lat="44.31673" lon="6.35055">
        <ele>1513.73</ele>
        <time>2022-04-18T13:47:37Z</time>
      </trkpt>
      <trkpt lat="44.31673" lon="6.35055">
        <ele>1513.25</ele>
        <time>2022-04-18T13:47:58Z</time>
      </trkpt>
      <trkpt lat="44.31673" lon="6.35055">
        <ele>1513.73</ele>
        <time>2022-04-18T13:48:20Z</time>
      </trkpt>
      <trkpt lat="44.31676" lon="6.35049">
        <ele>1514.21</ele>
        <time>2022-04-18T13:48:36Z</time>
      </trkpt>
      <trkpt lat="44.31679" lon="6.35041">
        <ele>1513.73</ele>
        <time>2022-04-18T13:48:49Z</time>
      </trkpt>
      <trkpt lat="44.31684" lon="6.35035">
        <ele>1514.69</ele>
        <time>2022-04-18T13:49:04Z</time>
      </trkpt>
      <trkpt lat="44.31693" lon="6.35022">
        <ele>1514.69</ele>
        <time>2022-04-18T13:49:18Z</time>
      </trkpt>
      <trkpt lat="44.31708" lon="6.35012">
        <ele>1513.25</ele>
        <time>2022-04-18T13:49:36Z</time>
      </trkpt>
      <trkpt lat="44.31714" lon="6.3501">
        <ele>1513.25</ele>
        <time>2022-04-18T13:49:42Z</time>
      </trkpt>
      <trkpt lat="44.31725" lon="6.35003">
        <ele>1511.81</ele>
        <time>2022-04-18T13:49:55Z</time>
      </trkpt>
      <trkpt lat="44.31726" lon="6.34985">
        <ele>1508.45</ele>
        <time>2022-04-18T13:50:10Z</time>
      </trkpt>
      <trkpt lat="44.31724" lon="6.34967">
        <ele>1504.6</ele>
        <time>2022-04-18T13:50:23Z</time>
      </trkpt>
      <trkpt lat="44.31728" lon="6.34954">
        <ele>1502.68</ele>
        <time>2022-04-18T13:50:33Z</time>
      </trkpt>
      <trkpt lat="44.31729" lon="6.34948">
        <ele>1503.64</ele>
        <time>2022-04-18T13:50:36Z</time>
      </trkpt>
      <trkpt lat="44.31739" lon="6.34932">
        <ele>1503.16</ele>
        <time>2022-04-18T13:50:50Z</time>
      </trkpt>
      <trkpt lat="44.31759" lon="6.34923">
        <ele>1497.39</ele>
        <time>2022-04-18T13:51:09Z</time>
      </trkpt>
      <trkpt lat="44.31775" lon="6.34922">
        <ele>1496.91</ele>
        <time>2022-04-18T13:51:24Z</time>
      </trkpt>
      <trkpt lat="44.31787" lon="6.3492">
        <ele>1495.95</ele>
        <time>2022-04-18T13:51:34Z</time>
      </trkpt>
      <trkpt lat="44.31807" lon="6.3491">
        <ele>1496.43</ele>
        <time>2022-04-18T13:51:51Z</time>
      </trkpt>
      <trkpt lat="44.31819" lon="6.34892">
        <ele>1493.55</ele>
        <time>2022-04-18T13:52:07Z</time>
      </trkpt>
      <trkpt lat="44.31825" lon="6.34878">
        <ele>1491.62</ele>
        <time>2022-04-18T13:52:17Z</time>
      </trkpt>
      <trkpt lat="44.31827" lon="6.34872">
        <ele>1491.62</ele>
        <time>2022-04-18T13:52:21Z</time>
      </trkpt>
      <trkpt lat="44.31832" lon="6.34861">
        <ele>1493.55</ele>
        <time>2022-04-18T13:52:28Z</time>
      </trkpt>
      <trkpt lat="44.31842" lon="6.34841">
        <ele>1495.95</ele>
        <time>2022-04-18T13:52:43Z</time>
      </trkpt>
      <trkpt lat="44.31845" lon="6.34833">
        <ele>1495.47</ele>
        <time>2022-04-18T13:52:48Z</time>
      </trkpt>
      <trkpt lat="44.31854" lon="6.34817">
        <ele>1495.95</ele>
        <time>2022-04-18T13:53:00Z</time>
      </trkpt>
      <trkpt lat="44.31867" lon="6.3479">
        <ele>1494.99</ele>
        <time>2022-04-18T13:53:18Z</time>
      </trkpt>
      <trkpt lat="44.3187" lon="6.34785">
        <ele>1495.47</ele>
        <time>2022-04-18T13:53:22Z</time>
      </trkpt>
      <trkpt lat="44.31882" lon="6.34765">
        <ele>1494.03</ele>
        <time>2022-04-18T13:53:37Z</time>
      </trkpt>
      <trkpt lat="44.31885" lon="6.3476">
        <ele>1493.55</ele>
        <time>2022-04-18T13:53:41Z</time>
      </trkpt>
      <trkpt lat="44.31901" lon="6.34745">
        <ele>1493.55</ele>
        <time>2022-04-18T13:53:58Z</time>
      </trkpt>
      <trkpt lat="44.31919" lon="6.34735">
        <ele>1492.1</ele>
        <time>2022-04-18T13:54:15Z</time>
      </trkpt>
      <trkpt lat="44.31933" lon="6.34721">
        <ele>1492.1</ele>
        <time>2022-04-18T13:54:31Z</time>
      </trkpt>
      <trkpt lat="44.31934" lon="6.3472">
        <ele>1492.1</ele>
        <time>2022-04-18T13:54:32Z</time>
      </trkpt>
      <trkpt lat="44.31947" lon="6.34704">
        <ele>1493.55</ele>
        <time>2022-04-18T13:54:48Z</time>
      </trkpt>
      <trkpt lat="44.31964" lon="6.34686">
        <ele>1494.51</ele>
        <time>2022-04-18T13:55:05Z</time>
      </trkpt>
      <trkpt lat="44.31982" lon="6.34669">
        <ele>1498.83</ele>
        <time>2022-04-18T13:55:24Z</time>
      </trkpt>
      <trkpt lat="44.31994" lon="6.34651">
        <ele>1497.87</ele>
        <time>2022-04-18T13:55:39Z</time>
      </trkpt>
      <trkpt lat="44.32" lon="6.34636">
        <ele>1499.79</ele>
        <time>2022-04-18T13:55:49Z</time>
      </trkpt>
      <trkpt lat="44.32001" lon="6.34631">
        <ele>1500.76</ele>
        <time>2022-04-18T13:55:53Z</time>
      </trkpt>
      <trkpt lat="44.32001" lon="6.34617">
        <ele>1503.16</ele>
        <time>2022-04-18T13:56:01Z</time>
      </trkpt>
      <trkpt lat="44.32" lon="6.34609">
        <ele>1503.16</ele>
        <time>2022-04-18T13:56:06Z</time>
      </trkpt>
      <trkpt lat="44.31994" lon="6.3459">
        <ele>1500.27</ele>
        <time>2022-04-18T13:56:23Z</time>
      </trkpt>
      <trkpt lat="44.31989" lon="6.34569">
        <ele>1496.91</ele>
        <time>2022-04-18T13:56:38Z</time>
      </trkpt>
      <trkpt lat="44.31988" lon="6.34566">
        <ele>1496.91</ele>
        <time>2022-04-18T13:56:40Z</time>
      </trkpt>
      <trkpt lat="44.32002" lon="6.34538">
        <ele>1499.31</ele>
        <time>2022-04-18T13:56:57Z</time>
      </trkpt>
      <trkpt lat="44.3202" lon="6.34528">
        <ele>1503.16</ele>
        <time>2022-04-18T13:57:12Z</time>
      </trkpt>
      <trkpt lat="44.32028" lon="6.34523">
        <ele>1504.6</ele>
        <time>2022-04-18T13:57:19Z</time>
      </trkpt>
      <trkpt lat="44.32044" lon="6.34505">
        <ele>1505.56</ele>
        <time>2022-04-18T13:57:37Z</time>
      </trkpt>
      <trkpt lat="44.3205" lon="6.34497">
        <ele>1505.56</ele>
        <time>2022-04-18T13:57:52Z</time>
      </trkpt>
      <trkpt lat="44.32062" lon="6.3448">
        <ele>1506.04</ele>
        <time>2022-04-18T13:58:08Z</time>
      </trkpt>
      <trkpt lat="44.32065" lon="6.34476">
        <ele>1506.04</ele>
        <time>2022-04-18T13:58:12Z</time>
      </trkpt>
      <trkpt lat="44.3208" lon="6.34462">
        <ele>1507.97</ele>
        <time>2022-04-18T13:58:29Z</time>
      </trkpt>
      <trkpt lat="44.32094" lon="6.34447">
        <ele>1510.37</ele>
        <time>2022-04-18T13:58:43Z</time>
      </trkpt>
      <trkpt lat="44.32109" lon="6.34432">
        <ele>1510.37</ele>
        <time>2022-04-18T13:58:59Z</time>
      </trkpt>
      <trkpt lat="44.32126" lon="6.34418">
        <ele>1511.33</ele>
        <time>2022-04-18T13:59:16Z</time>
      </trkpt>
      <trkpt lat="44.32143" lon="6.34399">
        <ele>1514.21</ele>
        <time>2022-04-18T13:59:33Z</time>
      </trkpt>
      <trkpt lat="44.32144" lon="6.34395">
        <ele>1514.21</ele>
        <time>2022-04-18T13:59:36Z</time>
      </trkpt>
      <trkpt lat="44.32139" lon="6.34382">
        <ele>1513.73</ele>
        <time>2022-04-18T13:59:45Z</time>
      </trkpt>
      <trkpt lat="44.32121" lon="6.34373">
        <ele>1511.33</ele>
        <time>2022-04-18T14:00:02Z</time>
      </trkpt>
      <trkpt lat="44.32103" lon="6.34367">
        <ele>1509.89</ele>
        <time>2022-04-18T14:00:18Z</time>
      </trkpt>
      <trkpt lat="44.32102" lon="6.34365">
        <ele>1510.37</ele>
        <time>2022-04-18T14:00:39Z</time>
      </trkpt>
      <trkpt lat="44.32102" lon="6.34366">
        <ele>1510.85</ele>
        <time>2022-04-18T14:01:01Z</time>
      </trkpt>
      <trkpt lat="44.32089" lon="6.34362">
        <ele>1511.33</ele>
        <time>2022-04-18T14:01:21Z</time>
      </trkpt>
      <trkpt lat="44.32075" lon="6.34361">
        <ele>1511.33</ele>
        <time>2022-04-18T14:01:36Z</time>
      </trkpt>
      <trkpt lat="44.32068" lon="6.34359">
        <ele>1510.85</ele>
        <time>2022-04-18T14:01:43Z</time>
      </trkpt>
      <trkpt lat="44.32049" lon="6.3435">
        <ele>1507.48</ele>
        <time>2022-04-18T14:02:01Z</time>
      </trkpt>
      <trkpt lat="44.32031" lon="6.34336">
        <ele>1501.24</ele>
        <time>2022-04-18T14:02:19Z</time>
      </trkpt>
      <trkpt lat="44.32015" lon="6.34311">
        <ele>1498.35</ele>
        <time>2022-04-18T14:02:35Z</time>
      </trkpt>
      <trkpt lat="44.32015" lon="6.3431">
        <ele>1497.87</ele>
        <time>2022-04-18T14:02:36Z</time>
      </trkpt>
      <trkpt lat="44.32016" lon="6.34303">
        <ele>1494.99</ele>
        <time>2022-04-18T14:02:42Z</time>
      </trkpt>
      <trkpt lat="44.32023" lon="6.34295">
        <ele>1493.55</ele>
        <time>2022-04-18T14:02:49Z</time>
      </trkpt>
      <trkpt lat="44.32033" lon="6.34295">
        <ele>1492.1</ele>
        <time>2022-04-18T14:02:56Z</time>
      </trkpt>
      <trkpt lat="44.32054" lon="6.34296">
        <ele>1490.66</ele>
        <time>2022-04-18T14:03:11Z</time>
      </trkpt>
      <trkpt lat="44.32061" lon="6.34295">
        <ele>1489.7</ele>
        <time>2022-04-18T14:03:18Z</time>
      </trkpt>
      <trkpt lat="44.32079" lon="6.34286">
        <ele>1487.78</ele>
        <time>2022-04-18T14:03:34Z</time>
      </trkpt>
      <trkpt lat="44.32082" lon="6.34285">
        <ele>1487.78</ele>
        <time>2022-04-18T14:03:36Z</time>
      </trkpt>
      <trkpt lat="44.32103" lon="6.34269">
        <ele>1492.1</ele>
        <time>2022-04-18T14:03:54Z</time>
      </trkpt>
      <trkpt lat="44.32121" lon="6.34247">
        <ele>1494.99</ele>
        <time>2022-04-18T14:04:13Z</time>
      </trkpt>
      <trkpt lat="44.32128" lon="6.34231">
        <ele>1493.55</ele>
        <time>2022-04-18T14:04:30Z</time>
      </trkpt>
      <trkpt lat="44.3213" lon="6.34227">
        <ele>1493.06</ele>
        <time>2022-04-18T14:04:54Z</time>
      </trkpt>
      <trkpt lat="44.32134" lon="6.34207">
        <ele>1488.74</ele>
        <time>2022-04-18T14:05:07Z</time>
      </trkpt>
      <trkpt lat="44.3214" lon="6.34192">
        <ele>1487.3</ele>
        <time>2022-04-18T14:05:17Z</time>
      </trkpt>
      <trkpt lat="44.32154" lon="6.34178">
        <ele>1485.85</ele>
        <time>2022-04-18T14:05:33Z</time>
      </trkpt>
      <trkpt lat="44.32157" lon="6.34177">
        <ele>1484.89</ele>
        <time>2022-04-18T14:05:37Z</time>
      </trkpt>
      <trkpt lat="44.32176" lon="6.34169">
        <ele>1482.49</ele>
        <time>2022-04-18T14:05:53Z</time>
      </trkpt>
      <trkpt lat="44.32197" lon="6.34154">
        <ele>1482.01</ele>
        <time>2022-04-18T14:06:11Z</time>
      </trkpt>
      <trkpt lat="44.32212" lon="6.3413">
        <ele>1480.57</ele>
        <time>2022-04-18T14:06:31Z</time>
      </trkpt>
      <trkpt lat="44.32213" lon="6.34129">
        <ele>1480.57</ele>
        <time>2022-04-18T14:06:32Z</time>
      </trkpt>
      <trkpt lat="44.32226" lon="6.34111">
        <ele>1479.61</ele>
        <time>2022-04-18T14:06:49Z</time>
      </trkpt>
      <trkpt lat="44.32233" lon="6.34101">
        <ele>1480.09</ele>
        <time>2022-04-18T14:06:56Z</time>
      </trkpt>
      <trkpt lat="44.32237" lon="6.34095">
        <ele>1480.57</ele>
        <time>2022-04-18T14:07:01Z</time>
      </trkpt>
      <trkpt lat="44.32253" lon="6.34072">
        <ele>1479.13</ele>
        <time>2022-04-18T14:07:20Z</time>
      </trkpt>
      <trkpt lat="44.32261" lon="6.3405">
        <ele>1477.68</ele>
        <time>2022-04-18T14:07:36Z</time>
      </trkpt>
      <trkpt lat="44.32259" lon="6.34028">
        <ele>1475.28</ele>
        <time>2022-04-18T14:07:54Z</time>
      </trkpt>
      <trkpt lat="44.32258" lon="6.34027">
        <ele>1474.8</ele>
        <time>2022-04-18T14:07:55Z</time>
      </trkpt>
      <trkpt lat="44.32258" lon="6.34009">
        <ele>1471.92</ele>
        <time>2022-04-18T14:08:08Z</time>
      </trkpt>
      <trkpt lat="44.32259" lon="6.33989">
        <ele>1472.4</ele>
        <time>2022-04-18T14:08:22Z</time>
      </trkpt>
      <trkpt lat="44.32259" lon="6.33988">
        <ele>1472.4</ele>
        <time>2022-04-18T14:08:23Z</time>
      </trkpt>
      <trkpt lat="44.32267" lon="6.33965">
        <ele>1471.44</ele>
        <time>2022-04-18T14:08:38Z</time>
      </trkpt>
      <trkpt lat="44.3227" lon="6.33941">
        <ele>1469.99</ele>
        <time>2022-04-18T14:08:55Z</time>
      </trkpt>
      <trkpt lat="44.32279" lon="6.33921">
        <ele>1470.47</ele>
        <time>2022-04-18T14:09:11Z</time>
      </trkpt>
      <trkpt lat="44.32299" lon="6.33912">
        <ele>1474.32</ele>
        <time>2022-04-18T14:09:27Z</time>
      </trkpt>
      <trkpt lat="44.32318" lon="6.33909">
        <ele>1472.4</ele>
        <time>2022-04-18T14:09:46Z</time>
      </trkpt>
      <trkpt lat="44.32335" lon="6.33904">
        <ele>1472.88</ele>
        <time>2022-04-18T14:10:00Z</time>
      </trkpt>
      <trkpt lat="44.32353" lon="6.33894">
        <ele>1471.92</ele>
        <time>2022-04-18T14:10:18Z</time>
      </trkpt>
      <trkpt lat="44.32363" lon="6.33888">
        <ele>1469.51</ele>
        <time>2022-04-18T14:10:32Z</time>
      </trkpt>
      <trkpt lat="44.32364" lon="6.33888">
        <ele>1469.03</ele>
        <time>2022-04-18T14:10:33Z</time>
      </trkpt>
      <trkpt lat="44.32381" lon="6.33872">
        <ele>1466.15</ele>
        <time>2022-04-18T14:10:49Z</time>
      </trkpt>
      <trkpt lat="44.32398" lon="6.3386">
        <ele>1463.74</ele>
        <time>2022-04-18T14:11:05Z</time>
      </trkpt>
      <trkpt lat="44.32415" lon="6.33857">
        <ele>1463.74</ele>
        <time>2022-04-18T14:11:19Z</time>
      </trkpt>
      <trkpt lat="44.32434" lon="6.33855">
        <ele>1465.19</ele>
        <time>2022-04-18T14:11:36Z</time>
      </trkpt>
      <trkpt lat="44.3245" lon="6.33851">
        <ele>1468.55</ele>
        <time>2022-04-18T14:11:51Z</time>
      </trkpt>
      <trkpt lat="44.32453" lon="6.3385">
        <ele>1469.03</ele>
        <time>2022-04-18T14:11:54Z</time>
      </trkpt>
      <trkpt lat="44.32457" lon="6.33849">
        <ele>1469.51</ele>
        <time>2022-04-18T14:11:58Z</time>
      </trkpt>
      <trkpt lat="44.3247" lon="6.33839">
        <ele>1469.51</ele>
        <time>2022-04-18T14:12:12Z</time>
      </trkpt>
      <trkpt lat="44.32479" lon="6.33831">
        <ele>1468.07</ele>
        <time>2022-04-18T14:12:20Z</time>
      </trkpt>
      <trkpt lat="44.3249" lon="6.33819">
        <ele>1466.63</ele>
        <time>2022-04-18T14:12:31Z</time>
      </trkpt>
      <trkpt lat="44.32497" lon="6.33817">
        <ele>1466.63</ele>
        <time>2022-04-18T14:12:36Z</time>
      </trkpt>
      <trkpt lat="44.32514" lon="6.33812">
        <ele>1466.63</ele>
        <time>2022-04-18T14:12:50Z</time>
      </trkpt>
      <trkpt lat="44.32516" lon="6.33811">
        <ele>1466.63</ele>
        <time>2022-04-18T14:12:52Z</time>
      </trkpt>
      <trkpt lat="44.32536" lon="6.338">
        <ele>1466.15</ele>
        <time>2022-04-18T14:13:09Z</time>
      </trkpt>
      <trkpt lat="44.32548" lon="6.33785">
        <ele>1466.15</ele>
        <time>2022-04-18T14:13:23Z</time>
      </trkpt>
      <trkpt lat="44.32556" lon="6.33774">
        <ele>1465.19</ele>
        <time>2022-04-18T14:13:33Z</time>
      </trkpt>
      <trkpt lat="44.32573" lon="6.33758">
        <ele>1466.15</ele>
        <time>2022-04-18T14:13:49Z</time>
      </trkpt>
      <trkpt lat="44.32576" lon="6.33757">
        <ele>1466.63</ele>
        <time>2022-04-18T14:13:51Z</time>
      </trkpt>
      <trkpt lat="44.32594" lon="6.33756">
        <ele>1470.47</ele>
        <time>2022-04-18T14:14:06Z</time>
      </trkpt>
      <trkpt lat="44.32611" lon="6.33754">
        <ele>1471.92</ele>
        <time>2022-04-18T14:14:21Z</time>
      </trkpt>
      <trkpt lat="44.32629" lon="6.33756">
        <ele>1474.32</ele>
        <time>2022-04-18T14:14:36Z</time>
      </trkpt>
      <trkpt lat="44.32646" lon="6.33762">
        <ele>1477.2</ele>
        <time>2022-04-18T14:14:52Z</time>
      </trkpt>
      <trkpt lat="44.32664" lon="6.33762">
        <ele>1477.2</ele>
        <time>2022-04-18T14:15:07Z</time>
      </trkpt>
      <trkpt lat="44.32685" lon="6.33763">
        <ele>1475.76</ele>
        <time>2022-04-18T14:15:25Z</time>
      </trkpt>
      <trkpt lat="44.32702" lon="6.33755">
        <ele>1474.8</ele>
        <time>2022-04-18T14:15:41Z</time>
      </trkpt>
      <trkpt lat="44.32713" lon="6.33747">
        <ele>1472.88</ele>
        <time>2022-04-18T14:15:56Z</time>
      </trkpt>
      <trkpt lat="44.32713" lon="6.33744">
        <ele>1472.4</ele>
        <time>2022-04-18T14:16:14Z</time>
      </trkpt>
      <trkpt lat="44.32713" lon="6.33738">
        <ele>1471.92</ele>
        <time>2022-04-18T14:16:20Z</time>
      </trkpt>
      <trkpt lat="44.32715" lon="6.33728">
        <ele>1472.4</ele>
        <time>2022-04-18T14:16:26Z</time>
      </trkpt>
      <trkpt lat="44.32724" lon="6.3371">
        <ele>1470.95</ele>
        <time>2022-04-18T14:16:41Z</time>
      </trkpt>
      <trkpt lat="44.32729" lon="6.33703">
        <ele>1469.99</ele>
        <time>2022-04-18T14:16:47Z</time>
      </trkpt>
      <trkpt lat="44.32742" lon="6.33683">
        <ele>1470.95</ele>
        <time>2022-04-18T14:17:03Z</time>
      </trkpt>
      <trkpt lat="44.32747" lon="6.33674">
        <ele>1470.47</ele>
        <time>2022-04-18T14:17:17Z</time>
      </trkpt>
      <trkpt lat="44.32756" lon="6.33657">
        <ele>1467.59</ele>
        <time>2022-04-18T14:17:31Z</time>
      </trkpt>
      <trkpt lat="44.3276" lon="6.33648">
        <ele>1467.11</ele>
        <time>2022-04-18T14:17:38Z</time>
      </trkpt>
      <trkpt lat="44.32774" lon="6.33629">
        <ele>1469.51</ele>
        <time>2022-04-18T14:17:53Z</time>
      </trkpt>
      <trkpt lat="44.32787" lon="6.33611">
        <ele>1470.95</ele>
        <time>2022-04-18T14:18:08Z</time>
      </trkpt>
      <trkpt lat="44.32787" lon="6.3361">
        <ele>1470.95</ele>
        <time>2022-04-18T14:18:09Z</time>
      </trkpt>
      <trkpt lat="44.32795" lon="6.33587">
        <ele>1469.03</ele>
        <time>2022-04-18T14:18:26Z</time>
      </trkpt>
      <trkpt lat="44.328" lon="6.33564">
        <ele>1469.51</ele>
        <time>2022-04-18T14:18:42Z</time>
      </trkpt>
      <trkpt lat="44.32801" lon="6.33545">
        <ele>1466.63</ele>
        <time>2022-04-18T14:18:56Z</time>
      </trkpt>
      <trkpt lat="44.32801" lon="6.33541">
        <ele>1465.67</ele>
        <time>2022-04-18T14:18:59Z</time>
      </trkpt>
      <trkpt lat="44.32803" lon="6.33526">
        <ele>1468.07</ele>
        <time>2022-04-18T14:19:08Z</time>
      </trkpt>
      <trkpt lat="44.3281" lon="6.33501">
        <ele>1474.8</ele>
        <time>2022-04-18T14:19:23Z</time>
      </trkpt>
      <trkpt lat="44.3281" lon="6.33484">
        <ele>1478.16</ele>
        <time>2022-04-18T14:19:34Z</time>
      </trkpt>
      <trkpt lat="44.32812" lon="6.33468">
        <ele>1476.24</ele>
        <time>2022-04-18T14:19:44Z</time>
      </trkpt>
      <trkpt lat="44.3281" lon="6.33446">
        <ele>1473.36</ele>
        <time>2022-04-18T14:19:59Z</time>
      </trkpt>
      <trkpt lat="44.3281" lon="6.33445">
        <ele>1473.36</ele>
        <time>2022-04-18T14:20:00Z</time>
      </trkpt>
      <trkpt lat="44.32815" lon="6.33428">
        <ele>1471.44</ele>
        <time>2022-04-18T14:20:13Z</time>
      </trkpt>
      <trkpt lat="44.32839" lon="6.3343">
        <ele>1469.51</ele>
        <time>2022-04-18T14:20:29Z</time>
      </trkpt>
      <trkpt lat="44.32853" lon="6.33427">
        <ele>1468.55</ele>
        <time>2022-04-18T14:20:42Z</time>
      </trkpt>
      <trkpt lat="44.32863" lon="6.33417">
        <ele>1468.55</ele>
        <time>2022-04-18T14:20:51Z</time>
      </trkpt>
      <trkpt lat="44.32862" lon="6.33413">
        <ele>1471.44</ele>
        <time>2022-04-18T14:21:03Z</time>
      </trkpt>
      <trkpt lat="44.32864" lon="6.33393">
        <ele>1474.8</ele>
        <time>2022-04-18T14:21:21Z</time>
      </trkpt>
      <trkpt lat="44.32861" lon="6.33373">
        <ele>1473.36</ele>
        <time>2022-04-18T14:21:36Z</time>
      </trkpt>
      <trkpt lat="44.32862" lon="6.33353">
        <ele>1470.95</ele>
        <time>2022-04-18T14:21:50Z</time>
      </trkpt>
      <trkpt lat="44.3286" lon="6.33332">
        <ele>1467.59</ele>
        <time>2022-04-18T14:22:04Z</time>
      </trkpt>
      <trkpt lat="44.32859" lon="6.33308">
        <ele>1466.63</ele>
        <time>2022-04-18T14:22:19Z</time>
      </trkpt>
      <trkpt lat="44.32862" lon="6.3329">
        <ele>1466.15</ele>
        <time>2022-04-18T14:22:34Z</time>
      </trkpt>
      <trkpt lat="44.32861" lon="6.33281">
        <ele>1464.71</ele>
        <time>2022-04-18T14:22:41Z</time>
      </trkpt>
      <trkpt lat="44.32856" lon="6.33261">
        <ele>1461.34</ele>
        <time>2022-04-18T14:22:55Z</time>
      </trkpt>
      <trkpt lat="44.32845" lon="6.33246">
        <ele>1461.82</ele>
        <time>2022-04-18T14:23:06Z</time>
      </trkpt>
      <trkpt lat="44.32846" lon="6.33242">
        <ele>1463.74</ele>
        <time>2022-04-18T14:23:09Z</time>
      </trkpt>
      <trkpt lat="44.32859" lon="6.33225">
        <ele>1466.63</ele>
        <time>2022-04-18T14:23:24Z</time>
      </trkpt>
      <trkpt lat="44.32874" lon="6.332">
        <ele>1467.11</ele>
        <time>2022-04-18T14:23:43Z</time>
      </trkpt>
      <trkpt lat="44.32882" lon="6.33175">
        <ele>1462.3</ele>
        <time>2022-04-18T14:24:01Z</time>
      </trkpt>
      <trkpt lat="44.32893" lon="6.33167">
        <ele>1460.38</ele>
        <time>2022-04-18T14:24:11Z</time>
      </trkpt>
      <trkpt lat="44.32907" lon="6.33159">
        <ele>1456.53</ele>
        <time>2022-04-18T14:24:23Z</time>
      </trkpt>
      <trkpt lat="44.32916" lon="6.3314">
        <ele>1453.65</ele>
        <time>2022-04-18T14:24:40Z</time>
      </trkpt>
      <trkpt lat="44.32913" lon="6.33122">
        <ele>1449.81</ele>
        <time>2022-04-18T14:24:54Z</time>
      </trkpt>
      <trkpt lat="44.32913" lon="6.33104">
        <ele>1445</ele>
        <time>2022-04-18T14:25:10Z</time>
      </trkpt>
      <trkpt lat="44.32933" lon="6.33093">
        <ele>1446.44</ele>
        <time>2022-04-18T14:25:29Z</time>
      </trkpt>
      <trkpt lat="44.32944" lon="6.3308">
        <ele>1449.32</ele>
        <time>2022-04-18T14:25:44Z</time>
      </trkpt>
      <trkpt lat="44.3294" lon="6.33061">
        <ele>1446.92</ele>
        <time>2022-04-18T14:25:58Z</time>
      </trkpt>
      <trkpt lat="44.32937" lon="6.33036">
        <ele>1449.32</ele>
        <time>2022-04-18T14:26:15Z</time>
      </trkpt>
      <trkpt lat="44.32939" lon="6.33026">
        <ele>1450.29</ele>
        <time>2022-04-18T14:26:21Z</time>
      </trkpt>
      <trkpt lat="44.32944" lon="6.33017">
        <ele>1451.25</ele>
        <time>2022-04-18T14:26:28Z</time>
      </trkpt>
      <trkpt lat="44.32944" lon="6.32992">
        <ele>1445.96</ele>
        <time>2022-04-18T14:26:44Z</time>
      </trkpt>
      <trkpt lat="44.32938" lon="6.32977">
        <ele>1446.44</ele>
        <time>2022-04-18T14:26:57Z</time>
      </trkpt>
      <trkpt lat="44.32931" lon="6.32962">
        <ele>1447.4</ele>
        <time>2022-04-18T14:27:10Z</time>
      </trkpt>
      <trkpt lat="44.32927" lon="6.32945">
        <ele>1446.92</ele>
        <time>2022-04-18T14:27:24Z</time>
      </trkpt>
      <trkpt lat="44.32925" lon="6.32927">
        <ele>1447.4</ele>
        <time>2022-04-18T14:27:37Z</time>
      </trkpt>
      <trkpt lat="44.32925" lon="6.32914">
        <ele>1448.36</ele>
        <time>2022-04-18T14:27:44Z</time>
      </trkpt>
      <trkpt lat="44.32933" lon="6.32884">
        <ele>1451.73</ele>
        <time>2022-04-18T14:28:03Z</time>
      </trkpt>
      <trkpt lat="44.32942" lon="6.3287">
        <ele>1451.25</ele>
        <time>2022-04-18T14:28:19Z</time>
      </trkpt>
      <trkpt lat="44.32938" lon="6.32849">
        <ele>1452.21</ele>
        <time>2022-04-18T14:28:33Z</time>
      </trkpt>
      <trkpt lat="44.32932" lon="6.32838">
        <ele>1452.69</ele>
        <time>2022-04-18T14:28:40Z</time>
      </trkpt>
      <trkpt lat="44.32924" lon="6.32825">
        <ele>1453.17</ele>
        <time>2022-04-18T14:28:49Z</time>
      </trkpt>
      <trkpt lat="44.32916" lon="6.3282">
        <ele>1453.17</ele>
        <time>2022-04-18T14:28:58Z</time>
      </trkpt>
      <trkpt lat="44.32895" lon="6.32815">
        <ele>1452.21</ele>
        <time>2022-04-18T14:29:16Z</time>
      </trkpt>
      <trkpt lat="44.32876" lon="6.32804">
        <ele>1454.13</ele>
        <time>2022-04-18T14:29:34Z</time>
      </trkpt>
      <trkpt lat="44.32872" lon="6.32801">
        <ele>1453.65</ele>
        <time>2022-04-18T14:29:38Z</time>
      </trkpt>
      <trkpt lat="44.32868" lon="6.32779">
        <ele>1451.25</ele>
        <time>2022-04-18T14:29:53Z</time>
      </trkpt>
      <trkpt lat="44.32857" lon="6.32759">
        <ele>1450.77</ele>
        <time>2022-04-18T14:30:08Z</time>
      </trkpt>
      <trkpt lat="44.32847" lon="6.3274">
        <ele>1450.29</ele>
        <time>2022-04-18T14:30:24Z</time>
      </trkpt>
      <trkpt lat="44.32843" lon="6.32733">
        <ele>1449.81</ele>
        <time>2022-04-18T14:30:30Z</time>
      </trkpt>
      <trkpt lat="44.32826" lon="6.32731">
        <ele>1447.88</ele>
        <time>2022-04-18T14:30:46Z</time>
      </trkpt>
      <trkpt lat="44.3281" lon="6.32738">
        <ele>1446.44</ele>
        <time>2022-04-18T14:31:03Z</time>
      </trkpt>
      <trkpt lat="44.328" lon="6.32744">
        <ele>1445.48</ele>
        <time>2022-04-18T14:31:19Z</time>
      </trkpt>
    </trkseg>
  </trk>
</gpx>